<?xml version="1.0" encoding="utf-8"?>
<gpx xmlns:xsi="http://www.w3.org/2001/XMLSchema-instance" xmlns:xsd="http://www.w3.org/2001/XMLSchema" version="1.1" creator="Shapelink.com" xmlns="http://www.topografix.com/GPX/1/1" xmlns:gpxtpx="http://www.garmin.com/xmlschemas/TrackPointExtension/v1">
  <metadata>
    <name>Löpning 21.00 km, 2011-05-21</name>
    <desc></desc>
    <author><name>Jojje Borssén</name></author> 
    <time>2011-05-21T14:39:00Z</time>
  </metadata>
  <trk>
    <name>Löpning 21.00 km, 2011-05-21</name>
    <trkseg>
      <trkpt lat="57.7019672065" lon="11.9168449551">
        <ele>1.4</ele>
        <time>2011-05-21T14:39:00Z</time>
      </trkpt>
      <trkpt lat="57.7020212698" lon="11.9171400818">
        <ele>1.4</ele>
        <time>2011-05-21T14:39:04Z</time>
      </trkpt>
      <trkpt lat="57.7020860619" lon="11.9174644613">
        <ele>2.2</ele>
        <time>2011-05-21T14:39:08Z</time>
      </trkpt>
      <trkpt lat="57.7021003111" lon="11.9175453467">
        <ele>2.4</ele>
        <time>2011-05-21T14:39:09Z</time>
      </trkpt>
      <trkpt lat="57.7021918415" lon="11.9179247114">
        <ele>2.8</ele>
        <time>2011-05-21T14:39:14Z</time>
      </trkpt>
      <trkpt lat="57.7022007263" lon="11.9179744161">
        <ele>2.8</ele>
        <time>2011-05-21T14:39:15Z</time>
      </trkpt>
      <trkpt lat="57.7022382772" lon="11.9181469994">
        <ele>3</ele>
        <time>2011-05-21T14:39:17Z</time>
      </trkpt>
      <trkpt lat="57.70226292" lon="11.9182362667">
        <ele>3</ele>
        <time>2011-05-21T14:39:18Z</time>
      </trkpt>
      <trkpt lat="57.7022959447" lon="11.9184101073">
        <ele>3.2</ele>
        <time>2011-05-21T14:39:21Z</time>
      </trkpt>
      <trkpt lat="57.702412956" lon="11.9187779889">
        <ele>3.4</ele>
        <time>2011-05-21T14:39:26Z</time>
      </trkpt>
      <trkpt lat="57.7024397781" lon="11.9188504923">
        <ele>3.6</ele>
        <time>2011-05-21T14:39:27Z</time>
      </trkpt>
      <trkpt lat="57.7024931708" lon="11.9190932321">
        <ele>4.2</ele>
        <time>2011-05-21T14:39:31Z</time>
      </trkpt>
      <trkpt lat="57.7026452184" lon="11.9193777976">
        <ele>4.8</ele>
        <time>2011-05-21T14:39:36Z</time>
      </trkpt>
      <trkpt lat="57.7026981082" lon="11.9194646341">
        <ele>5.4</ele>
        <time>2011-05-21T14:39:38Z</time>
      </trkpt>
      <trkpt lat="57.7029094997" lon="11.9195965652">
        <ele>7.6</ele>
        <time>2011-05-21T14:39:47Z</time>
      </trkpt>
      <trkpt lat="57.7029224079" lon="11.9195254867">
        <ele>8.6</ele>
        <time>2011-05-21T14:39:51Z</time>
      </trkpt>
      <trkpt lat="57.7029615513" lon="11.9195026879">
        <ele>9.4</ele>
        <time>2011-05-21T14:39:53Z</time>
      </trkpt>
      <trkpt lat="57.7031087375" lon="11.9196030193">
        <ele>10.8</ele>
        <time>2011-05-21T14:39:57Z</time>
      </trkpt>
      <trkpt lat="57.7032199653" lon="11.9198366228">
        <ele>12</ele>
        <time>2011-05-21T14:40:00Z</time>
      </trkpt>
      <trkpt lat="57.7032633836" lon="11.9199916042">
        <ele>12.8</ele>
        <time>2011-05-21T14:40:02Z</time>
      </trkpt>
      <trkpt lat="57.7033135911" lon="11.9201132255">
        <ele>13.8</ele>
        <time>2011-05-21T14:40:04Z</time>
      </trkpt>
      <trkpt lat="57.7033596916" lon="11.9204248646">
        <ele>15.6</ele>
        <time>2011-05-21T14:40:08Z</time>
      </trkpt>
      <trkpt lat="57.7033755334" lon="11.9205314823">
        <ele>16.2</ele>
        <time>2011-05-21T14:40:09Z</time>
      </trkpt>
      <trkpt lat="57.7033870166" lon="11.9207237631">
        <ele>17.2</ele>
        <time>2011-05-21T14:40:11Z</time>
      </trkpt>
      <trkpt lat="57.7033915428" lon="11.9208848633">
        <ele>18.4</ele>
        <time>2011-05-21T14:40:14Z</time>
      </trkpt>
      <trkpt lat="57.7033713424" lon="11.9208996992">
        <ele>19</ele>
        <time>2011-05-21T14:40:15Z</time>
      </trkpt>
      <trkpt lat="57.7033517288" lon="11.9209333106">
        <ele>19.4</ele>
        <time>2011-05-21T14:40:16Z</time>
      </trkpt>
      <trkpt lat="57.7033098193" lon="11.9212718556">
        <ele>20.8</ele>
        <time>2011-05-21T14:40:19Z</time>
      </trkpt>
      <trkpt lat="57.703300683" lon="11.9213843407">
        <ele>21</ele>
        <time>2011-05-21T14:40:20Z</time>
      </trkpt>
      <trkpt lat="57.7033028623" lon="11.9214738594">
        <ele>21.4</ele>
        <time>2011-05-21T14:40:21Z</time>
      </trkpt>
      <trkpt lat="57.703325242" lon="11.9217905275">
        <ele>22.2</ele>
        <time>2011-05-21T14:40:25Z</time>
      </trkpt>
      <trkpt lat="57.7032328734" lon="11.9219325169">
        <ele>22.8</ele>
        <time>2011-05-21T14:40:28Z</time>
      </trkpt>
      <trkpt lat="57.7031851804" lon="11.9219912741">
        <ele>23</ele>
        <time>2011-05-21T14:40:30Z</time>
      </trkpt>
      <trkpt lat="57.7029828414" lon="11.9222060183">
        <ele>23.4</ele>
        <time>2011-05-21T14:40:35Z</time>
      </trkpt>
      <trkpt lat="57.7029572766" lon="11.9222731573">
        <ele>23.4</ele>
        <time>2011-05-21T14:40:36Z</time>
      </trkpt>
      <trkpt lat="57.7028678417" lon="11.9224050885">
        <ele>23.6</ele>
        <time>2011-05-21T14:40:38Z</time>
      </trkpt>
      <trkpt lat="57.7026639101" lon="11.9225126282">
        <ele>23.8</ele>
        <time>2011-05-21T14:40:43Z</time>
      </trkpt>
      <trkpt lat="57.7025799234" lon="11.9225421325">
        <ele>23.8</ele>
        <time>2011-05-21T14:40:45Z</time>
      </trkpt>
      <trkpt lat="57.7024366768" lon="11.9225711339">
        <ele>23.8</ele>
        <time>2011-05-21T14:40:50Z</time>
      </trkpt>
      <trkpt lat="57.7024116987" lon="11.9225694575">
        <ele>23.8</ele>
        <time>2011-05-21T14:40:51Z</time>
      </trkpt>
      <trkpt lat="57.7022512691" lon="11.9225770012">
        <ele>23.8</ele>
        <time>2011-05-21T14:40:55Z</time>
      </trkpt>
      <trkpt lat="57.7022480002" lon="11.9226277955">
        <ele>23.8</ele>
        <time>2011-05-21T14:40:56Z</time>
      </trkpt>
      <trkpt lat="57.7022604892" lon="11.9229057393">
        <ele>24</ele>
        <time>2011-05-21T14:41:00Z</time>
      </trkpt>
      <trkpt lat="57.7022757443" lon="11.9229902289">
        <ele>24</ele>
        <time>2011-05-21T14:41:01Z</time>
      </trkpt>
      <trkpt lat="57.702304578" lon="11.9231587889">
        <ele>24</ele>
        <time>2011-05-21T14:41:03Z</time>
      </trkpt>
      <trkpt lat="57.7023812724" lon="11.9236044545">
        <ele>23.6</ele>
        <time>2011-05-21T14:41:09Z</time>
      </trkpt>
      <trkpt lat="57.7023940129" lon="11.9237630401">
        <ele>23.2</ele>
        <time>2011-05-21T14:41:11Z</time>
      </trkpt>
      <trkpt lat="57.7024251097" lon="11.9239818077">
        <ele>22.8</ele>
        <time>2011-05-21T14:41:14Z</time>
      </trkpt>
      <trkpt lat="57.7024987866" lon="11.9242259724">
        <ele>21.6</ele>
        <time>2011-05-21T14:41:19Z</time>
      </trkpt>
      <trkpt lat="57.7025183165" lon="11.9242570693">
        <ele>21.4</ele>
        <time>2011-05-21T14:41:20Z</time>
      </trkpt>
      <trkpt lat="57.7026274488" lon="11.9244433989">
        <ele>20.8</ele>
        <time>2011-05-21T14:41:24Z</time>
      </trkpt>
      <trkpt lat="57.7027027183" lon="11.9246079356">
        <ele>20.2</ele>
        <time>2011-05-21T14:41:27Z</time>
      </trkpt>
      <trkpt lat="57.7028690152" lon="11.9247911639">
        <ele>19</ele>
        <time>2011-05-21T14:41:32Z</time>
      </trkpt>
      <trkpt lat="57.7029151994" lon="11.9248269546">
        <ele>18.6</ele>
        <time>2011-05-21T14:41:33Z</time>
      </trkpt>
      <trkpt lat="57.7030752937" lon="11.9249355841">
        <ele>18.4</ele>
        <time>2011-05-21T14:41:37Z</time>
      </trkpt>
      <trkpt lat="57.7032306103" lon="11.9250392682">
        <ele>17.4</ele>
        <time>2011-05-21T14:41:41Z</time>
      </trkpt>
      <trkpt lat="57.7033718453" lon="11.9250562834">
        <ele>16.6</ele>
        <time>2011-05-21T14:41:45Z</time>
      </trkpt>
      <trkpt lat="57.7035115716" lon="11.9250906492">
        <ele>16</ele>
        <time>2011-05-21T14:41:50Z</time>
      </trkpt>
      <trkpt lat="57.7035965641" lon="11.9250872965">
        <ele>15.2</ele>
        <time>2011-05-21T14:41:54Z</time>
      </trkpt>
      <trkpt lat="57.7037110608" lon="11.9250910683">
        <ele>14.4</ele>
        <time>2011-05-21T14:41:59Z</time>
      </trkpt>
      <trkpt lat="57.7038340233" lon="11.9250830217">
        <ele>13.8</ele>
        <time>2011-05-21T14:42:04Z</time>
      </trkpt>
      <trkpt lat="57.7039786949" lon="11.9250790822">
        <ele>12.6</ele>
        <time>2011-05-21T14:42:09Z</time>
      </trkpt>
      <trkpt lat="57.7041214387" lon="11.9250742207">
        <ele>11.8</ele>
        <time>2011-05-21T14:42:15Z</time>
      </trkpt>
      <trkpt lat="57.7042443173" lon="11.925086123">
        <ele>11.6</ele>
        <time>2011-05-21T14:42:20Z</time>
      </trkpt>
      <trkpt lat="57.7042957822" lon="11.9250910683">
        <ele>11</ele>
        <time>2011-05-21T14:42:22Z</time>
      </trkpt>
      <trkpt lat="57.7044267075" lon="11.9250865421">
        <ele>10</ele>
        <time>2011-05-21T14:42:28Z</time>
      </trkpt>
      <trkpt lat="57.7045194951" lon="11.9250692754">
        <ele>9.8</ele>
        <time>2011-05-21T14:42:31Z</time>
      </trkpt>
      <trkpt lat="57.704629298" lon="11.925070365">
        <ele>9.4</ele>
        <time>2011-05-21T14:42:38Z</time>
      </trkpt>
      <trkpt lat="57.7047433756" lon="11.9250590495">
        <ele>9.2</ele>
        <time>2011-05-21T14:42:43Z</time>
      </trkpt>
      <trkpt lat="57.7048763964" lon="11.9250629889">
        <ele>9.2</ele>
        <time>2011-05-21T14:42:48Z</time>
      </trkpt>
      <trkpt lat="57.7049706089" lon="11.9250584627">
        <ele>9</ele>
        <time>2011-05-21T14:42:52Z</time>
      </trkpt>
      <trkpt lat="57.7050663302" lon="11.9250559481">
        <ele>9</ele>
        <time>2011-05-21T14:42:56Z</time>
      </trkpt>
      <trkpt lat="57.7051995186" lon="11.9250775734">
        <ele>9</ele>
        <time>2011-05-21T14:43:00Z</time>
      </trkpt>
      <trkpt lat="57.7053042086" lon="11.9250764">
        <ele>9</ele>
        <time>2011-05-21T14:43:03Z</time>
      </trkpt>
      <trkpt lat="57.7054228963" lon="11.9251045632">
        <ele>9</ele>
        <time>2011-05-21T14:43:07Z</time>
      </trkpt>
      <trkpt lat="57.7055558332" lon="11.925145383">
        <ele>9</ele>
        <time>2011-05-21T14:43:12Z</time>
      </trkpt>
      <trkpt lat="57.7056994151" lon="11.9251529267">
        <ele>9</ele>
        <time>2011-05-21T14:43:17Z</time>
      </trkpt>
      <trkpt lat="57.705722633" lon="11.9251557766">
        <ele>9</ele>
        <time>2011-05-21T14:43:18Z</time>
      </trkpt>
      <trkpt lat="57.7058002494" lon="11.9251867058">
        <ele>9</ele>
        <time>2011-05-21T14:43:21Z</time>
      </trkpt>
      <trkpt lat="57.7059567395" lon="11.9252253463">
        <ele>9</ele>
        <time>2011-05-21T14:43:27Z</time>
      </trkpt>
      <trkpt lat="57.7061066079" lon="11.9252712792">
        <ele>9</ele>
        <time>2011-05-21T14:43:32Z</time>
      </trkpt>
      <trkpt lat="57.7062618406" lon="11.9253088301">
        <ele>9</ele>
        <time>2011-05-21T14:43:38Z</time>
      </trkpt>
      <trkpt lat="57.7063673688" lon="11.9253353169">
        <ele>9</ele>
        <time>2011-05-21T14:43:42Z</time>
      </trkpt>
      <trkpt lat="57.7065542851" lon="11.9254131009">
        <ele>9</ele>
        <time>2011-05-21T14:43:50Z</time>
      </trkpt>
      <trkpt lat="57.7067076739" lon="11.9254669127">
        <ele>9</ele>
        <time>2011-05-21T14:43:56Z</time>
      </trkpt>
      <trkpt lat="57.7068782456" lon="11.9255671602">
        <ele>9</ele>
        <time>2011-05-21T14:44:03Z</time>
      </trkpt>
      <trkpt lat="57.7070587079" lon="11.9257091496">
        <ele>9</ele>
        <time>2011-05-21T14:44:10Z</time>
      </trkpt>
      <trkpt lat="57.7072335543" lon="11.9258202936">
        <ele>9</ele>
        <time>2011-05-21T14:44:16Z</time>
      </trkpt>
      <trkpt lat="57.7074135137" lon="11.9259140032">
        <ele>9</ele>
        <time>2011-05-21T14:44:22Z</time>
      </trkpt>
      <trkpt lat="57.7075213049" lon="11.9259721736">
        <ele>9</ele>
        <time>2011-05-21T14:44:26Z</time>
      </trkpt>
      <trkpt lat="57.7077026054" lon="11.9260513826">
        <ele>9.2</ele>
        <time>2011-05-21T14:44:31Z</time>
      </trkpt>
      <trkpt lat="57.7078626159" lon="11.9261003329">
        <ele>10</ele>
        <time>2011-05-21T14:44:36Z</time>
      </trkpt>
      <trkpt lat="57.7078921202" lon="11.9261071222">
        <ele>10</ele>
        <time>2011-05-21T14:44:37Z</time>
      </trkpt>
      <trkpt lat="57.7079600136" lon="11.9261663823">
        <ele>10.4</ele>
        <time>2011-05-21T14:44:40Z</time>
      </trkpt>
      <trkpt lat="57.7079922001" lon="11.9262536378">
        <ele>10.6</ele>
        <time>2011-05-21T14:44:44Z</time>
      </trkpt>
      <trkpt lat="57.7079825609" lon="11.9262424899">
        <ele>10.4</ele>
        <time>2011-05-21T14:45:09Z</time>
      </trkpt>
      <trkpt lat="57.7080663799" lon="11.9263053542">
        <ele>10</ele>
        <time>2011-05-21T14:45:13Z</time>
      </trkpt>
      <trkpt lat="57.7082335988" lon="11.9264278975">
        <ele>9.2</ele>
        <time>2011-05-21T14:45:19Z</time>
      </trkpt>
      <trkpt lat="57.708428478" lon="11.9265615888">
        <ele>8</ele>
        <time>2011-05-21T14:45:26Z</time>
      </trkpt>
      <trkpt lat="57.7085564696" lon="11.9266478386">
        <ele>7.6</ele>
        <time>2011-05-21T14:45:31Z</time>
      </trkpt>
      <trkpt lat="57.7086366844" lon="11.9267117087">
        <ele>7.4</ele>
        <time>2011-05-21T14:45:34Z</time>
      </trkpt>
      <trkpt lat="57.7086653505" lon="11.9268810231">
        <ele>7.2</ele>
        <time>2011-05-21T14:45:39Z</time>
      </trkpt>
      <trkpt lat="57.7086044141" lon="11.9271147104">
        <ele>7</ele>
        <time>2011-05-21T14:45:44Z</time>
      </trkpt>
      <trkpt lat="57.7085528654" lon="11.9274027963">
        <ele>7</ele>
        <time>2011-05-21T14:45:50Z</time>
      </trkpt>
      <trkpt lat="57.7084791885" lon="11.9277104959">
        <ele>6.8</ele>
        <time>2011-05-21T14:45:57Z</time>
      </trkpt>
      <trkpt lat="57.7083952018" lon="11.9280469453">
        <ele>6.8</ele>
        <time>2011-05-21T14:46:05Z</time>
      </trkpt>
      <trkpt lat="57.7083040068" lon="11.9283667986">
        <ele>6.8</ele>
        <time>2011-05-21T14:46:12Z</time>
      </trkpt>
      <trkpt lat="57.7081845647" lon="11.9286237877">
        <ele>6.8</ele>
        <time>2011-05-21T14:46:18Z</time>
      </trkpt>
      <trkpt lat="57.7080866641" lon="11.9288215167">
        <ele>6.8</ele>
        <time>2011-05-21T14:46:23Z</time>
      </trkpt>
      <trkpt lat="57.7079867518" lon="11.9291050764">
        <ele>6</ele>
        <time>2011-05-21T14:46:30Z</time>
      </trkpt>
      <trkpt lat="57.7078805532" lon="11.9294147038">
        <ele>5.4</ele>
        <time>2011-05-21T14:46:37Z</time>
      </trkpt>
      <trkpt lat="57.7078179404" lon="11.9296775602">
        <ele>5.2</ele>
        <time>2011-05-21T14:46:43Z</time>
      </trkpt>
      <trkpt lat="57.7077512204" lon="11.9299357227">
        <ele>5</ele>
        <time>2011-05-21T14:46:49Z</time>
      </trkpt>
      <trkpt lat="57.7076841653" lon="11.9302823981">
        <ele>4.8</ele>
        <time>2011-05-21T14:46:56Z</time>
      </trkpt>
      <trkpt lat="57.7076550801" lon="11.9306026705">
        <ele>4.8</ele>
        <time>2011-05-21T14:47:02Z</time>
      </trkpt>
      <trkpt lat="57.7076586005" lon="11.9309023234">
        <ele>4.8</ele>
        <time>2011-05-21T14:47:08Z</time>
      </trkpt>
      <trkpt lat="57.7076737717" lon="11.93126417">
        <ele>5</ele>
        <time>2011-05-21T14:47:15Z</time>
      </trkpt>
      <trkpt lat="57.707682908" lon="11.9315955065">
        <ele>6</ele>
        <time>2011-05-21T14:47:21Z</time>
      </trkpt>
      <trkpt lat="57.7076816507" lon="11.9318908847">
        <ele>6.4</ele>
        <time>2011-05-21T14:47:26Z</time>
      </trkpt>
      <trkpt lat="57.7076794714" lon="11.932255665">
        <ele>7.4</ele>
        <time>2011-05-21T14:47:32Z</time>
      </trkpt>
      <trkpt lat="57.7076571755" lon="11.9328230358">
        <ele>8.4</ele>
        <time>2011-05-21T14:47:42Z</time>
      </trkpt>
      <trkpt lat="57.7076655574" lon="11.933191085">
        <ele>8.8</ele>
        <time>2011-05-21T14:47:48Z</time>
      </trkpt>
      <trkpt lat="57.7076674015" lon="11.9335334018">
        <ele>8.8</ele>
        <time>2011-05-21T14:47:54Z</time>
      </trkpt>
      <trkpt lat="57.7076059621" lon="11.9338768921">
        <ele>9</ele>
        <time>2011-05-21T14:48:00Z</time>
      </trkpt>
      <trkpt lat="57.7074840893" lon="11.9341458672">
        <ele>9</ele>
        <time>2011-05-21T14:48:06Z</time>
      </trkpt>
      <trkpt lat="57.7073675809" lon="11.9344177761">
        <ele>9</ele>
        <time>2011-05-21T14:48:12Z</time>
      </trkpt>
      <trkpt lat="57.7073011962" lon="11.9347439158">
        <ele>9</ele>
        <time>2011-05-21T14:48:18Z</time>
      </trkpt>
      <trkpt lat="57.7072806606" lon="11.9347899324">
        <ele>9</ele>
        <time>2011-05-21T14:48:19Z</time>
      </trkpt>
      <trkpt lat="57.7071335582" lon="11.9348785291">
        <ele>9</ele>
        <time>2011-05-21T14:48:25Z</time>
      </trkpt>
      <trkpt lat="57.7070610548" lon="11.9348613462">
        <ele>9</ele>
        <time>2011-05-21T14:48:28Z</time>
      </trkpt>
      <trkpt lat="57.7069173052" lon="11.9348479352">
        <ele>9</ele>
        <time>2011-05-21T14:48:33Z</time>
      </trkpt>
      <trkpt lat="57.7067067519" lon="11.9348330154">
        <ele>8.8</ele>
        <time>2011-05-21T14:48:38Z</time>
      </trkpt>
      <trkpt lat="57.7065355097" lon="11.9348703149">
        <ele>8</ele>
        <time>2011-05-21T14:48:43Z</time>
      </trkpt>
      <trkpt lat="57.7064241142" lon="11.9350513639">
        <ele>7.6</ele>
        <time>2011-05-21T14:48:48Z</time>
      </trkpt>
      <trkpt lat="57.7063317457" lon="11.9353646793">
        <ele>7.4</ele>
        <time>2011-05-21T14:48:54Z</time>
      </trkpt>
      <trkpt lat="57.7062877407" lon="11.935541286">
        <ele>7.2</ele>
        <time>2011-05-21T14:48:58Z</time>
      </trkpt>
      <trkpt lat="57.7062573144" lon="11.9356238477">
        <ele>7.2</ele>
        <time>2011-05-21T14:49:00Z</time>
      </trkpt>
      <trkpt lat="57.7062017424" lon="11.93586357">
        <ele>7.8</ele>
        <time>2011-05-21T14:49:05Z</time>
      </trkpt>
      <trkpt lat="57.7061361121" lon="11.9361009454">
        <ele>8.4</ele>
        <time>2011-05-21T14:49:10Z</time>
      </trkpt>
      <trkpt lat="57.706085234" lon="11.9362555915">
        <ele>9.2</ele>
        <time>2011-05-21T14:49:13Z</time>
      </trkpt>
      <trkpt lat="57.705995883" lon="11.9365369719">
        <ele>10.4</ele>
        <time>2011-05-21T14:49:19Z</time>
      </trkpt>
      <trkpt lat="57.7059862438" lon="11.9365874309">
        <ele>10.8</ele>
        <time>2011-05-21T14:49:20Z</time>
      </trkpt>
      <trkpt lat="57.7059155005" lon="11.9368197772">
        <ele>12</ele>
        <time>2011-05-21T14:49:25Z</time>
      </trkpt>
      <trkpt lat="57.7057970643" lon="11.937111132">
        <ele>14</ele>
        <time>2011-05-21T14:49:31Z</time>
      </trkpt>
      <trkpt lat="57.7057338648" lon="11.9374044147">
        <ele>16</ele>
        <time>2011-05-21T14:49:36Z</time>
      </trkpt>
      <trkpt lat="57.7056684021" lon="11.9377767387">
        <ele>18.2</ele>
        <time>2011-05-21T14:49:42Z</time>
      </trkpt>
      <trkpt lat="57.7055915401" lon="11.9383309499">
        <ele>20.8</ele>
        <time>2011-05-21T14:49:52Z</time>
      </trkpt>
      <trkpt lat="57.7055993353" lon="11.9384336282">
        <ele>21</ele>
        <time>2011-05-21T14:49:54Z</time>
      </trkpt>
      <trkpt lat="57.7057127424" lon="11.9385520644">
        <ele>21.4</ele>
        <time>2011-05-21T14:49:59Z</time>
      </trkpt>
      <trkpt lat="57.7057326913" lon="11.9385620389">
        <ele>21.4</ele>
        <time>2011-05-21T14:50:00Z</time>
      </trkpt>
      <trkpt lat="57.7058207012" lon="11.9386688243">
        <ele>21.6</ele>
        <time>2011-05-21T14:50:05Z</time>
      </trkpt>
      <trkpt lat="57.7058966413" lon="11.9387802198">
        <ele>21.8</ele>
        <time>2011-05-21T14:50:09Z</time>
      </trkpt>
      <trkpt lat="57.7060316737" lon="11.9389510429">
        <ele>21</ele>
        <time>2011-05-21T14:50:15Z</time>
      </trkpt>
      <trkpt lat="57.7061869903" lon="11.9391228718">
        <ele>19.6</ele>
        <time>2011-05-21T14:50:21Z</time>
      </trkpt>
      <trkpt lat="57.7062803646" lon="11.9393144821">
        <ele>18.8</ele>
        <time>2011-05-21T14:50:26Z</time>
      </trkpt>
      <trkpt lat="57.7062854776" lon="11.9394195073">
        <ele>18.6</ele>
        <time>2011-05-21T14:50:28Z</time>
      </trkpt>
      <trkpt lat="57.7061739145" lon="11.9395614966">
        <ele>18.2</ele>
        <time>2011-05-21T14:50:33Z</time>
      </trkpt>
      <trkpt lat="57.7060455876" lon="11.9396796814">
        <ele>18</ele>
        <time>2011-05-21T14:50:38Z</time>
      </trkpt>
      <trkpt lat="57.7060105513" lon="11.9397356725">
        <ele>18</ele>
        <time>2011-05-21T14:50:40Z</time>
      </trkpt>
      <trkpt lat="57.7058764409" lon="11.9398387699">
        <ele>17.6</ele>
        <time>2011-05-21T14:50:45Z</time>
      </trkpt>
      <trkpt lat="57.7057424981" lon="11.9399957629">
        <ele>16.8</ele>
        <time>2011-05-21T14:50:50Z</time>
      </trkpt>
      <trkpt lat="57.70561568" lon="11.9400572022">
        <ele>16.4</ele>
        <time>2011-05-21T14:50:54Z</time>
      </trkpt>
      <trkpt lat="57.7054357206" lon="11.9401424461">
        <ele>16.2</ele>
        <time>2011-05-21T14:50:59Z</time>
      </trkpt>
      <trkpt lat="57.7052681664" lon="11.9402546798">
        <ele>16</ele>
        <time>2011-05-21T14:51:04Z</time>
      </trkpt>
      <trkpt lat="57.7051431084" lon="11.9403582801">
        <ele>15.8</ele>
        <time>2011-05-21T14:51:08Z</time>
      </trkpt>
      <trkpt lat="57.7049606345" lon="11.9405265886">
        <ele>15.8</ele>
        <time>2011-05-21T14:51:14Z</time>
      </trkpt>
      <trkpt lat="57.7049349859" lon="11.9405581046">
        <ele>15.8</ele>
        <time>2011-05-21T14:51:15Z</time>
      </trkpt>
      <trkpt lat="57.7047423698" lon="11.9407646346">
        <ele>15.8</ele>
        <time>2011-05-21T14:51:22Z</time>
      </trkpt>
      <trkpt lat="57.7047132846" lon="11.9408124114">
        <ele>15.8</ele>
        <time>2011-05-21T14:51:23Z</time>
      </trkpt>
      <trkpt lat="57.7046712075" lon="11.9409304286">
        <ele>15.8</ele>
        <time>2011-05-21T14:51:25Z</time>
      </trkpt>
      <trkpt lat="57.7047020529" lon="11.9412544728">
        <ele>15.4</ele>
        <time>2011-05-21T14:51:30Z</time>
      </trkpt>
      <trkpt lat="57.7047603909" lon="11.9415069356">
        <ele>14.8</ele>
        <time>2011-05-21T14:51:35Z</time>
      </trkpt>
      <trkpt lat="57.7048149571" lon="11.9416846319">
        <ele>14.4</ele>
        <time>2011-05-21T14:51:39Z</time>
      </trkpt>
      <trkpt lat="57.7048322238" lon="11.9418669382">
        <ele>14</ele>
        <time>2011-05-21T14:51:43Z</time>
      </trkpt>
      <trkpt lat="57.7049185573" lon="11.9421167189">
        <ele>13</ele>
        <time>2011-05-21T14:51:48Z</time>
      </trkpt>
      <trkpt lat="57.704972453" lon="11.9422110152">
        <ele>12.6</ele>
        <time>2011-05-21T14:51:50Z</time>
      </trkpt>
      <trkpt lat="57.7049667533" lon="11.9423947465">
        <ele>12.2</ele>
        <time>2011-05-21T14:51:54Z</time>
      </trkpt>
      <trkpt lat="57.7050836808" lon="11.942545034">
        <ele>11.8</ele>
        <time>2011-05-21T14:52:00Z</time>
      </trkpt>
      <trkpt lat="57.7051054737" lon="11.9425335508">
        <ele>11.6</ele>
        <time>2011-05-21T14:52:01Z</time>
      </trkpt>
      <trkpt lat="57.7052019494" lon="11.9424247537">
        <ele>10.8</ele>
        <time>2011-05-21T14:52:05Z</time>
      </trkpt>
      <trkpt lat="57.7053536618" lon="11.9422910624">
        <ele>10</ele>
        <time>2011-05-21T14:52:11Z</time>
      </trkpt>
      <trkpt lat="57.7053781369" lon="11.9422839378">
        <ele>10</ele>
        <time>2011-05-21T14:52:12Z</time>
      </trkpt>
      <trkpt lat="57.7054898676" lon="11.94217271">
        <ele>9.8</ele>
        <time>2011-05-21T14:52:17Z</time>
      </trkpt>
      <trkpt lat="57.7056199547" lon="11.9420450536">
        <ele>9.6</ele>
        <time>2011-05-21T14:52:22Z</time>
      </trkpt>
      <trkpt lat="57.7057522211" lon="11.9419245219">
        <ele>9.4</ele>
        <time>2011-05-21T14:52:27Z</time>
      </trkpt>
      <trkpt lat="57.7059448372" lon="11.9417817781">
        <ele>9.4</ele>
        <time>2011-05-21T14:52:33Z</time>
      </trkpt>
      <trkpt lat="57.7060994832" lon="11.9416689578">
        <ele>9.6</ele>
        <time>2011-05-21T14:52:38Z</time>
      </trkpt>
      <trkpt lat="57.7062569791" lon="11.9415515273">
        <ele>11</ele>
        <time>2011-05-21T14:52:43Z</time>
      </trkpt>
      <trkpt lat="57.7064417162" lon="11.9414322529">
        <ele>12.6</ele>
        <time>2011-05-21T14:52:48Z</time>
      </trkpt>
      <trkpt lat="57.7065687858" lon="11.9413184267">
        <ele>14.8</ele>
        <time>2011-05-21T14:52:52Z</time>
      </trkpt>
      <trkpt lat="57.7066601485" lon="11.9412093782">
        <ele>17.6</ele>
        <time>2011-05-21T14:52:56Z</time>
      </trkpt>
      <trkpt lat="57.7067355856" lon="11.9411304207">
        <ele>19.6</ele>
        <time>2011-05-21T14:52:59Z</time>
      </trkpt>
      <trkpt lat="57.7068204105" lon="11.9410441709">
        <ele>21.6</ele>
        <time>2011-05-21T14:53:03Z</time>
      </trkpt>
      <trkpt lat="57.7068627391" lon="11.9410165107">
        <ele>22.8</ele>
        <time>2011-05-21T14:53:05Z</time>
      </trkpt>
      <trkpt lat="57.706940104" lon="11.9409832345">
        <ele>24</ele>
        <time>2011-05-21T14:53:08Z</time>
      </trkpt>
      <trkpt lat="57.7070375017" lon="11.9409361282">
        <ele>25.2</ele>
        <time>2011-05-21T14:53:12Z</time>
      </trkpt>
      <trkpt lat="57.7070663354" lon="11.9409124913">
        <ele>25.6</ele>
        <time>2011-05-21T14:53:13Z</time>
      </trkpt>
      <trkpt lat="57.7071944947" lon="11.9407974916">
        <ele>27</ele>
        <time>2011-05-21T14:53:18Z</time>
      </trkpt>
      <trkpt lat="57.7072197242" lon="11.9407818175">
        <ele>27.2</ele>
        <time>2011-05-21T14:53:19Z</time>
      </trkpt>
      <trkpt lat="57.7072949936" lon="11.9407836615">
        <ele>28.6</ele>
        <time>2011-05-21T14:53:23Z</time>
      </trkpt>
      <trkpt lat="57.7073474643" lon="11.9407631258">
        <ele>29.2</ele>
        <time>2011-05-21T14:53:25Z</time>
      </trkpt>
      <trkpt lat="57.7073695925" lon="11.9407679035">
        <ele>29.6</ele>
        <time>2011-05-21T14:53:27Z</time>
      </trkpt>
      <trkpt lat="57.7074161959" lon="11.9407553307">
        <ele>30</ele>
        <time>2011-05-21T14:53:30Z</time>
      </trkpt>
      <trkpt lat="57.7074415092" lon="11.9407476193">
        <ele>30.4</ele>
        <time>2011-05-21T14:53:31Z</time>
      </trkpt>
      <trkpt lat="57.7074611229" lon="11.9407528999">
        <ele>30.6</ele>
        <time>2011-05-21T14:53:32Z</time>
      </trkpt>
      <trkpt lat="57.7075288486" lon="11.9407946418">
        <ele>31.2</ele>
        <time>2011-05-21T14:53:34Z</time>
      </trkpt>
      <trkpt lat="57.7076866798" lon="11.941083063">
        <ele>32.4</ele>
        <time>2011-05-21T14:53:41Z</time>
      </trkpt>
      <trkpt lat="57.7077902801" lon="11.9413992282">
        <ele>32.8</ele>
        <time>2011-05-21T14:53:47Z</time>
      </trkpt>
      <trkpt lat="57.7079135779" lon="11.9416090272">
        <ele>33</ele>
        <time>2011-05-21T14:53:52Z</time>
      </trkpt>
      <trkpt lat="57.7080832275" lon="11.9417577221">
        <ele>33</ele>
        <time>2011-05-21T14:53:58Z</time>
      </trkpt>
      <trkpt lat="57.7081768533" lon="11.9418475761">
        <ele>32.4</ele>
        <time>2011-05-21T14:54:02Z</time>
      </trkpt>
      <trkpt lat="57.7082179246" lon="11.9419194928">
        <ele>32.2</ele>
        <time>2011-05-21T14:54:04Z</time>
      </trkpt>
      <trkpt lat="57.7083083653" lon="11.9421602209">
        <ele>30.8</ele>
        <time>2011-05-21T14:54:09Z</time>
      </trkpt>
      <trkpt lat="57.7083561422" lon="11.9423644878">
        <ele>29.6</ele>
        <time>2011-05-21T14:54:13Z</time>
      </trkpt>
      <trkpt lat="57.7084103731" lon="11.9426067247">
        <ele>28.2</ele>
        <time>2011-05-21T14:54:18Z</time>
      </trkpt>
      <trkpt lat="57.70848405" lon="11.942881232">
        <ele>26.4</ele>
        <time>2011-05-21T14:54:24Z</time>
      </trkpt>
      <trkpt lat="57.7085050047" lon="11.9431327728">
        <ele>24.8</ele>
        <time>2011-05-21T14:54:29Z</time>
      </trkpt>
      <trkpt lat="57.7084637658" lon="11.9434777718">
        <ele>23.6</ele>
        <time>2011-05-21T14:54:35Z</time>
      </trkpt>
      <trkpt lat="57.7084092834" lon="11.9438355951">
        <ele>22.2</ele>
        <time>2011-05-21T14:54:42Z</time>
      </trkpt>
      <trkpt lat="57.708358992" lon="11.944061152">
        <ele>21.6</ele>
        <time>2011-05-21T14:54:46Z</time>
      </trkpt>
      <trkpt lat="57.7083560584" lon="11.9442846135">
        <ele>21.2</ele>
        <time>2011-05-21T14:54:50Z</time>
      </trkpt>
      <trkpt lat="57.7083837186" lon="11.9446828375">
        <ele>20.6</ele>
        <time>2011-05-21T14:54:57Z</time>
      </trkpt>
      <trkpt lat="57.7084423081" lon="11.94497436">
        <ele>20</ele>
        <time>2011-05-21T14:55:02Z</time>
      </trkpt>
      <trkpt lat="57.7085038313" lon="11.9452391443">
        <ele>19.2</ele>
        <time>2011-05-21T14:55:07Z</time>
      </trkpt>
      <trkpt lat="57.7085218523" lon="11.9453520484">
        <ele>19</ele>
        <time>2011-05-21T14:55:09Z</time>
      </trkpt>
      <trkpt lat="57.7085182481" lon="11.9455954588">
        <ele>18.8</ele>
        <time>2011-05-21T14:55:13Z</time>
      </trkpt>
      <trkpt lat="57.7085273844" lon="11.9460068425">
        <ele>18.4</ele>
        <time>2011-05-21T14:55:20Z</time>
      </trkpt>
      <trkpt lat="57.7084804458" lon="11.9463729639">
        <ele>18.2</ele>
        <time>2011-05-21T14:55:26Z</time>
      </trkpt>
      <trkpt lat="57.7084803619" lon="11.9466981816">
        <ele>18.2</ele>
        <time>2011-05-21T14:55:32Z</time>
      </trkpt>
      <trkpt lat="57.708578514" lon="11.9468935637">
        <ele>18.2</ele>
        <time>2011-05-21T14:55:38Z</time>
      </trkpt>
      <trkpt lat="57.7087678611" lon="11.9470237346">
        <ele>18.2</ele>
        <time>2011-05-21T14:55:45Z</time>
      </trkpt>
      <trkpt lat="57.70885914" lon="11.9471535702">
        <ele>18.2</ele>
        <time>2011-05-21T14:55:50Z</time>
      </trkpt>
      <trkpt lat="57.7089421208" lon="11.9473762773">
        <ele>18.2</ele>
        <time>2011-05-21T14:55:55Z</time>
      </trkpt>
      <trkpt lat="57.7089979443" lon="11.9475859924">
        <ele>18.2</ele>
        <time>2011-05-21T14:55:59Z</time>
      </trkpt>
      <trkpt lat="57.7090276162" lon="11.947853878">
        <ele>18.2</ele>
        <time>2011-05-21T14:56:04Z</time>
      </trkpt>
      <trkpt lat="57.7090029734" lon="11.9480311551">
        <ele>18.2</ele>
        <time>2011-05-21T14:56:07Z</time>
      </trkpt>
      <trkpt lat="57.7090206592" lon="11.9483805966">
        <ele>18.4</ele>
        <time>2011-05-21T14:56:13Z</time>
      </trkpt>
      <trkpt lat="57.709096683" lon="11.9486556905">
        <ele>19.4</ele>
        <time>2011-05-21T14:56:19Z</time>
      </trkpt>
      <trkpt lat="57.7091098426" lon="11.9488825047">
        <ele>20.6</ele>
        <time>2011-05-21T14:56:24Z</time>
      </trkpt>
      <trkpt lat="57.7091288695" lon="11.9490824969">
        <ele>21.8</ele>
        <time>2011-05-21T14:56:28Z</time>
      </trkpt>
      <trkpt lat="57.7091878781" lon="11.949345018">
        <ele>22.8</ele>
        <time>2011-05-21T14:56:33Z</time>
      </trkpt>
      <trkpt lat="57.7092678414" lon="11.9496291644">
        <ele>23.6</ele>
        <time>2011-05-21T14:56:39Z</time>
      </trkpt>
      <trkpt lat="57.7093935699" lon="11.9499231176">
        <ele>24</ele>
        <time>2011-05-21T14:56:45Z</time>
      </trkpt>
      <trkpt lat="57.7095073961" lon="11.9502390314">
        <ele>25</ele>
        <time>2011-05-21T14:56:51Z</time>
      </trkpt>
      <trkpt lat="57.7096572645" lon="11.9504513449">
        <ele>25.6</ele>
        <time>2011-05-21T14:56:56Z</time>
      </trkpt>
      <trkpt lat="57.7098479527" lon="11.9504961043">
        <ele>26</ele>
        <time>2011-05-21T14:57:01Z</time>
      </trkpt>
      <trkpt lat="57.7100556562" lon="11.9504459805">
        <ele>26.2</ele>
        <time>2011-05-21T14:57:07Z</time>
      </trkpt>
      <trkpt lat="57.7102138227" lon="11.9503256164">
        <ele>26.4</ele>
        <time>2011-05-21T14:57:13Z</time>
      </trkpt>
      <trkpt lat="57.7103713186" lon="11.9501439807">
        <ele>26.4</ele>
        <time>2011-05-21T14:57:19Z</time>
      </trkpt>
      <trkpt lat="57.7105126374" lon="11.9498842256">
        <ele>26.4</ele>
        <time>2011-05-21T14:57:25Z</time>
      </trkpt>
      <trkpt lat="57.7106212668" lon="11.9495995763">
        <ele>26.4</ele>
        <time>2011-05-21T14:57:31Z</time>
      </trkpt>
      <trkpt lat="57.7107169043" lon="11.9493029408">
        <ele>26.4</ele>
        <time>2011-05-21T14:57:37Z</time>
      </trkpt>
      <trkpt lat="57.7107955265" lon="11.9490617097">
        <ele>26</ele>
        <time>2011-05-21T14:57:42Z</time>
      </trkpt>
      <trkpt lat="57.7109096042" lon="11.9487528367">
        <ele>25.2</ele>
        <time>2011-05-21T14:57:48Z</time>
      </trkpt>
      <trkpt lat="57.711034243" lon="11.948480425">
        <ele>24.8</ele>
        <time>2011-05-21T14:57:54Z</time>
      </trkpt>
      <trkpt lat="57.7111501647" lon="11.9482837018">
        <ele>24.8</ele>
        <time>2011-05-21T14:57:59Z</time>
      </trkpt>
      <trkpt lat="57.7113053975" lon="11.948217401">
        <ele>24.6</ele>
        <time>2011-05-21T14:58:05Z</time>
      </trkpt>
      <trkpt lat="57.7115074851" lon="11.9482980348">
        <ele>24.6</ele>
        <time>2011-05-21T14:58:12Z</time>
      </trkpt>
      <trkpt lat="57.7116922222" lon="11.9484407786">
        <ele>24.2</ele>
        <time>2011-05-21T14:58:19Z</time>
      </trkpt>
      <trkpt lat="57.711821052" lon="11.9484826043">
        <ele>23.6</ele>
        <time>2011-05-21T14:58:23Z</time>
      </trkpt>
      <trkpt lat="57.7119631252" lon="11.9485639925">
        <ele>22.6</ele>
        <time>2011-05-21T14:58:28Z</time>
      </trkpt>
      <trkpt lat="57.7121323558" lon="11.9486688501">
        <ele>21.2</ele>
        <time>2011-05-21T14:58:34Z</time>
      </trkpt>
      <trkpt lat="57.7122608503" lon="11.9487452092">
        <ele>20</ele>
        <time>2011-05-21T14:58:39Z</time>
      </trkpt>
      <trkpt lat="57.7124167536" lon="11.9488218198">
        <ele>18.4</ele>
        <time>2011-05-21T14:58:45Z</time>
      </trkpt>
      <trkpt lat="57.7124450006" lon="11.9488172935">
        <ele>18.2</ele>
        <time>2011-05-21T14:58:46Z</time>
      </trkpt>
      <trkpt lat="57.7125580725" lon="11.9488543415">
        <ele>17.6</ele>
        <time>2011-05-21T14:58:50Z</time>
      </trkpt>
      <trkpt lat="57.7126957871" lon="11.9489382444">
        <ele>16.2</ele>
        <time>2011-05-21T14:58:55Z</time>
      </trkpt>
      <trkpt lat="57.7128012314" lon="11.9489488894">
        <ele>15.4</ele>
        <time>2011-05-21T14:58:59Z</time>
      </trkpt>
      <trkpt lat="57.7129892374" lon="11.9489854345">
        <ele>14.6</ele>
        <time>2011-05-21T14:59:06Z</time>
      </trkpt>
      <trkpt lat="57.7130180711" lon="11.9489974206">
        <ele>14.6</ele>
        <time>2011-05-21T14:59:07Z</time>
      </trkpt>
      <trkpt lat="57.7131168099" lon="11.949063889">
        <ele>14</ele>
        <time>2011-05-21T14:59:12Z</time>
      </trkpt>
      <trkpt lat="57.7131176481" lon="11.949101859">
        <ele>13</ele>
        <time>2011-05-21T14:59:18Z</time>
      </trkpt>
      <trkpt lat="57.7131883913" lon="11.9491568443">
        <ele>12.6</ele>
        <time>2011-05-21T14:59:24Z</time>
      </trkpt>
      <trkpt lat="57.7132240144" lon="11.9491751169">
        <ele>12</ele>
        <time>2011-05-21T14:59:26Z</time>
      </trkpt>
      <trkpt lat="57.7132996192" lon="11.949259774">
        <ele>11</ele>
        <time>2011-05-21T14:59:32Z</time>
      </trkpt>
      <trkpt lat="57.7133810912" lon="11.9493629552">
        <ele>10.6</ele>
        <time>2011-05-21T14:59:36Z</time>
      </trkpt>
      <trkpt lat="57.713549316" lon="11.9494281664">
        <ele>9.6</ele>
        <time>2011-05-21T14:59:41Z</time>
      </trkpt>
      <trkpt lat="57.7137344721" lon="11.949460772">
        <ele>8.8</ele>
        <time>2011-05-21T14:59:46Z</time>
      </trkpt>
      <trkpt lat="57.7138912137" lon="11.9494678966">
        <ele>8</ele>
        <time>2011-05-21T14:59:51Z</time>
      </trkpt>
      <trkpt lat="57.7140460274" lon="11.9494847442">
        <ele>7</ele>
        <time>2011-05-21T14:59:57Z</time>
      </trkpt>
      <trkpt lat="57.7141733484" lon="11.9496151666">
        <ele>6.6</ele>
        <time>2011-05-21T15:00:02Z</time>
      </trkpt>
      <trkpt lat="57.7143188582" lon="11.9497148274">
        <ele>6.2</ele>
        <time>2011-05-21T15:00:07Z</time>
      </trkpt>
      <trkpt lat="57.7145077024" lon="11.9498366164">
        <ele>5</ele>
        <time>2011-05-21T15:00:13Z</time>
      </trkpt>
      <trkpt lat="57.7146749213" lon="11.9499532086">
        <ele>4.4</ele>
        <time>2011-05-21T15:00:19Z</time>
      </trkpt>
      <trkpt lat="57.7148485105" lon="11.9500474212">
        <ele>4.2</ele>
        <time>2011-05-21T15:00:26Z</time>
      </trkpt>
      <trkpt lat="57.7150243627" lon="11.9501361855">
        <ele>4</ele>
        <time>2011-05-21T15:00:33Z</time>
      </trkpt>
      <trkpt lat="57.7152173979" lon="11.9502374389">
        <ele>3.8</ele>
        <time>2011-05-21T15:00:41Z</time>
      </trkpt>
      <trkpt lat="57.7154194855" lon="11.9502969504">
        <ele>3.8</ele>
        <time>2011-05-21T15:00:49Z</time>
      </trkpt>
      <trkpt lat="57.7156190585" lon="11.9502496764">
        <ele>3.8</ele>
        <time>2011-05-21T15:00:57Z</time>
      </trkpt>
      <trkpt lat="57.7157628081" lon="11.9500858103">
        <ele>3.8</ele>
        <time>2011-05-21T15:01:04Z</time>
      </trkpt>
      <trkpt lat="57.7158580265" lon="11.9501572241">
        <ele>3.8</ele>
        <time>2011-05-21T15:01:08Z</time>
      </trkpt>
      <trkpt lat="57.7159799831" lon="11.9503468227">
        <ele>3.8</ele>
        <time>2011-05-21T15:01:14Z</time>
      </trkpt>
      <trkpt lat="57.7160841702" lon="11.9505065817">
        <ele>3.8</ele>
        <time>2011-05-21T15:01:19Z</time>
      </trkpt>
      <trkpt lat="57.7161848368" lon="11.9506789135">
        <ele>3.8</ele>
        <time>2011-05-21T15:01:24Z</time>
      </trkpt>
      <trkpt lat="57.7163210426" lon="11.9509224915">
        <ele>3.4</ele>
        <time>2011-05-21T15:01:31Z</time>
      </trkpt>
      <trkpt lat="57.7164053646" lon="11.9510486391">
        <ele>2.8</ele>
        <time>2011-05-21T15:01:35Z</time>
      </trkpt>
      <trkpt lat="57.7165368766" lon="11.9512721006">
        <ele>2.2</ele>
        <time>2011-05-21T15:01:42Z</time>
      </trkpt>
      <trkpt lat="57.7166569054" lon="11.9514888565">
        <ele>2</ele>
        <time>2011-05-21T15:01:48Z</time>
      </trkpt>
      <trkpt lat="57.7167506988" lon="11.9517203646">
        <ele>2</ele>
        <time>2011-05-21T15:01:53Z</time>
      </trkpt>
      <trkpt lat="57.7168877429" lon="11.9520264716">
        <ele>1.8</ele>
        <time>2011-05-21T15:01:58Z</time>
      </trkpt>
      <trkpt lat="57.7169934387" lon="11.9523026552">
        <ele>1.8</ele>
        <time>2011-05-21T15:02:02Z</time>
      </trkpt>
      <trkpt lat="57.7171056723" lon="11.9526065829">
        <ele>2</ele>
        <time>2011-05-21T15:02:07Z</time>
      </trkpt>
      <trkpt lat="57.7171222685" lon="11.952659305">
        <ele>2.2</ele>
        <time>2011-05-21T15:02:08Z</time>
      </trkpt>
      <trkpt lat="57.7171717217" lon="11.9527852012">
        <ele>2.8</ele>
        <time>2011-05-21T15:02:11Z</time>
      </trkpt>
      <trkpt lat="57.717320668" lon="11.9527813455">
        <ele>3.4</ele>
        <time>2011-05-21T15:02:16Z</time>
      </trkpt>
      <trkpt lat="57.7173601468" lon="11.9527629053">
        <ele>3.8</ele>
        <time>2011-05-21T15:02:17Z</time>
      </trkpt>
      <trkpt lat="57.7175796688" lon="11.9527156314">
        <ele>4.6</ele>
        <time>2011-05-21T15:02:22Z</time>
      </trkpt>
      <trkpt lat="57.7176265236" lon="11.9527337363">
        <ele>4.8</ele>
        <time>2011-05-21T15:02:23Z</time>
      </trkpt>
      <trkpt lat="57.7178225762" lon="11.952970525">
        <ele>5.2</ele>
        <time>2011-05-21T15:02:28Z</time>
      </trkpt>
      <trkpt lat="57.7179680022" lon="11.9532055535">
        <ele>6</ele>
        <time>2011-05-21T15:02:32Z</time>
      </trkpt>
      <trkpt lat="57.7181470396" lon="11.9534973274">
        <ele>6.8</ele>
        <time>2011-05-21T15:02:37Z</time>
      </trkpt>
      <trkpt lat="57.7182921303" lon="11.9537115688">
        <ele>8</ele>
        <time>2011-05-21T15:02:41Z</time>
      </trkpt>
      <trkpt lat="57.7184308507" lon="11.9539391374">
        <ele>9</ele>
        <time>2011-05-21T15:02:45Z</time>
      </trkpt>
      <trkpt lat="57.7185704932" lon="11.9541674603">
        <ele>10</ele>
        <time>2011-05-21T15:02:49Z</time>
      </trkpt>
      <trkpt lat="57.718709046" lon="11.9544142234">
        <ele>10.8</ele>
        <time>2011-05-21T15:02:53Z</time>
      </trkpt>
      <trkpt lat="57.7188510353" lon="11.9546404509">
        <ele>11.8</ele>
        <time>2011-05-21T15:02:57Z</time>
      </trkpt>
      <trkpt lat="57.7189916836" lon="11.9548737192">
        <ele>12.6</ele>
        <time>2011-05-21T15:03:01Z</time>
      </trkpt>
      <trkpt lat="57.7191218545" lon="11.9551267688">
        <ele>13.2</ele>
        <time>2011-05-21T15:03:05Z</time>
      </trkpt>
      <trkpt lat="57.7192559649" lon="11.9553732804">
        <ele>13.6</ele>
        <time>2011-05-21T15:03:09Z</time>
      </trkpt>
      <trkpt lat="57.7193883151" lon="11.9556082251">
        <ele>13.8</ele>
        <time>2011-05-21T15:03:13Z</time>
      </trkpt>
      <trkpt lat="57.7195566237" lon="11.9558794634">
        <ele>14</ele>
        <time>2011-05-21T15:03:18Z</time>
      </trkpt>
      <trkpt lat="57.7195912409" lon="11.9559350354">
        <ele>14</ele>
        <time>2011-05-21T15:03:19Z</time>
      </trkpt>
      <trkpt lat="57.7197409417" lon="11.9562651146">
        <ele>14.2</ele>
        <time>2011-05-21T15:03:24Z</time>
      </trkpt>
      <trkpt lat="57.7197650815" lon="11.9563429825">
        <ele>14.2</ele>
        <time>2011-05-21T15:03:25Z</time>
      </trkpt>
      <trkpt lat="57.7198521695" lon="11.9566917533">
        <ele>14.2</ele>
        <time>2011-05-21T15:03:29Z</time>
      </trkpt>
      <trkpt lat="57.719865832" lon="11.9567844571">
        <ele>14.2</ele>
        <time>2011-05-21T15:03:30Z</time>
      </trkpt>
      <trkpt lat="57.7198829311" lon="11.9569727984">
        <ele>14.2</ele>
        <time>2011-05-21T15:03:32Z</time>
      </trkpt>
      <trkpt lat="57.71989081" lon="11.9571458008">
        <ele>14.2</ele>
        <time>2011-05-21T15:03:34Z</time>
      </trkpt>
      <trkpt lat="57.7197823483" lon="11.9575524906">
        <ele>14.2</ele>
        <time>2011-05-21T15:03:40Z</time>
      </trkpt>
      <trkpt lat="57.7197478148" lon="11.9576708431">
        <ele>14.2</ele>
        <time>2011-05-21T15:03:42Z</time>
      </trkpt>
      <trkpt lat="57.7196328152" lon="11.9581069533">
        <ele>14</ele>
        <time>2011-05-21T15:03:48Z</time>
      </trkpt>
      <trkpt lat="57.7196145426" lon="11.9581860784">
        <ele>13.8</ele>
        <time>2011-05-21T15:03:49Z</time>
      </trkpt>
      <trkpt lat="57.7195570428" lon="11.9584151558">
        <ele>13.4</ele>
        <time>2011-05-21T15:03:52Z</time>
      </trkpt>
      <trkpt lat="57.719488395" lon="11.9588233543">
        <ele>13</ele>
        <time>2011-05-21T15:03:57Z</time>
      </trkpt>
      <trkpt lat="57.7194432166" lon="11.9590873003">
        <ele>12.8</ele>
        <time>2011-05-21T15:04:00Z</time>
      </trkpt>
      <trkpt lat="57.7194421269" lon="11.9595393362">
        <ele>11.6</ele>
        <time>2011-05-21T15:04:05Z</time>
      </trkpt>
      <trkpt lat="57.7195526842" lon="11.9598342953">
        <ele>11.2</ele>
        <time>2011-05-21T15:04:09Z</time>
      </trkpt>
      <trkpt lat="57.7195954319" lon="11.959879809">
        <ele>11</ele>
        <time>2011-05-21T15:04:10Z</time>
      </trkpt>
      <trkpt lat="57.7197414446" lon="11.9599945572">
        <ele>10.4</ele>
        <time>2011-05-21T15:04:13Z</time>
      </trkpt>
      <trkpt lat="57.7199785685" lon="11.9601427492">
        <ele>9.4</ele>
        <time>2011-05-21T15:04:18Z</time>
      </trkpt>
      <trkpt lat="57.7200787322" lon="11.9604517898">
        <ele>8.2</ele>
        <time>2011-05-21T15:04:22Z</time>
      </trkpt>
      <trkpt lat="57.720068171" lon="11.9607898319">
        <ele>7.4</ele>
        <time>2011-05-21T15:04:26Z</time>
      </trkpt>
      <trkpt lat="57.7200532513" lon="11.9608719745">
        <ele>7.2</ele>
        <time>2011-05-21T15:04:27Z</time>
      </trkpt>
      <trkpt lat="57.7200259263" lon="11.9610372656">
        <ele>7</ele>
        <time>2011-05-21T15:04:29Z</time>
      </trkpt>
      <trkpt lat="57.7199467173" lon="11.9613785765">
        <ele>6.6</ele>
        <time>2011-05-21T15:04:35Z</time>
      </trkpt>
      <trkpt lat="57.7198499064" lon="11.9617237432">
        <ele>6</ele>
        <time>2011-05-21T15:04:42Z</time>
      </trkpt>
      <trkpt lat="57.719686627" lon="11.9622000027">
        <ele>4.6</ele>
        <time>2011-05-21T15:04:52Z</time>
      </trkpt>
      <trkpt lat="57.7195935879" lon="11.9623998272">
        <ele>4.4</ele>
        <time>2011-05-21T15:04:57Z</time>
      </trkpt>
      <trkpt lat="57.7194539454" lon="11.9626431538">
        <ele>4.2</ele>
        <time>2011-05-21T15:05:04Z</time>
      </trkpt>
      <trkpt lat="57.7193188292" lon="11.9628281423">
        <ele>4</ele>
        <time>2011-05-21T15:05:10Z</time>
      </trkpt>
      <trkpt lat="57.7191564718" lon="11.963015394">
        <ele>4</ele>
        <time>2011-05-21T15:05:17Z</time>
      </trkpt>
      <trkpt lat="57.7190124707" lon="11.9631201677">
        <ele>3.8</ele>
        <time>2011-05-21T15:05:23Z</time>
      </trkpt>
      <trkpt lat="57.7188653684" lon="11.9632021427">
        <ele>2.8</ele>
        <time>2011-05-21T15:05:29Z</time>
      </trkpt>
      <trkpt lat="57.7187079563" lon="11.9633003786">
        <ele>2.4</ele>
        <time>2011-05-21T15:05:35Z</time>
      </trkpt>
      <trkpt lat="57.7185212076" lon="11.9634200721">
        <ele>2.2</ele>
        <time>2011-05-21T15:05:42Z</time>
      </trkpt>
      <trkpt lat="57.7183634602" lon="11.9635033882">
        <ele>2</ele>
        <time>2011-05-21T15:05:48Z</time>
      </trkpt>
      <trkpt lat="57.7182124184" lon="11.9635883806">
        <ele>2</ele>
        <time>2011-05-21T15:05:54Z</time>
      </trkpt>
      <trkpt lat="57.7180789785" lon="11.9636721158">
        <ele>2</ele>
        <time>2011-05-21T15:05:59Z</time>
      </trkpt>
      <trkpt lat="57.7179386655" lon="11.9637501513">
        <ele>2</ele>
        <time>2011-05-21T15:06:05Z</time>
      </trkpt>
      <trkpt lat="57.7177936587" lon="11.9638334674">
        <ele>2.4</ele>
        <time>2011-05-21T15:06:11Z</time>
      </trkpt>
      <trkpt lat="57.7176770664" lon="11.9638853514">
        <ele>3</ele>
        <time>2011-05-21T15:06:16Z</time>
      </trkpt>
      <trkpt lat="57.7175583787" lon="11.9639469583">
        <ele>3.4</ele>
        <time>2011-05-21T15:06:21Z</time>
      </trkpt>
      <trkpt lat="57.7174451393" lon="11.9640020274">
        <ele>4.2</ele>
        <time>2011-05-21T15:06:26Z</time>
      </trkpt>
      <trkpt lat="57.7173049939" lon="11.9640739441">
        <ele>5</ele>
        <time>2011-05-21T15:06:32Z</time>
      </trkpt>
      <trkpt lat="57.7171872282" lon="11.9641392391">
        <ele>5.6</ele>
        <time>2011-05-21T15:06:37Z</time>
      </trkpt>
      <trkpt lat="57.7170573926" lon="11.9641902011">
        <ele>6.6</ele>
        <time>2011-05-21T15:06:43Z</time>
      </trkpt>
      <trkpt lat="57.7168942808" lon="11.9642689909">
        <ele>7.8</ele>
        <time>2011-05-21T15:06:50Z</time>
      </trkpt>
      <trkpt lat="57.7167589969" lon="11.9643368005">
        <ele>9</ele>
        <time>2011-05-21T15:06:57Z</time>
      </trkpt>
      <trkpt lat="57.7166366212" lon="11.9644042748">
        <ele>10.4</ele>
        <time>2011-05-21T15:07:04Z</time>
      </trkpt>
      <trkpt lat="57.7164853279" lon="11.9644649597">
        <ele>11.4</ele>
        <time>2011-05-21T15:07:12Z</time>
      </trkpt>
      <trkpt lat="57.7163606052" lon="11.9645390557">
        <ele>12</ele>
        <time>2011-05-21T15:07:18Z</time>
      </trkpt>
      <trkpt lat="57.7161822384" lon="11.9646221204">
        <ele>13.2</ele>
        <time>2011-05-21T15:07:26Z</time>
      </trkpt>
      <trkpt lat="57.7160095712" lon="11.9647649479">
        <ele>13.8</ele>
        <time>2011-05-21T15:07:34Z</time>
      </trkpt>
      <trkpt lat="57.7158441964" lon="11.9649452426">
        <ele>15</ele>
        <time>2011-05-21T15:07:42Z</time>
      </trkpt>
      <trkpt lat="57.7156800788" lon="11.9651500962">
        <ele>15.8</ele>
        <time>2011-05-21T15:07:50Z</time>
      </trkpt>
      <trkpt lat="57.7156286139" lon="11.9652021478">
        <ele>16.8</ele>
        <time>2011-05-21T15:07:55Z</time>
      </trkpt>
      <trkpt lat="57.7156198129" lon="11.9652254495">
        <ele>20</ele>
        <time>2011-05-21T15:08:27Z</time>
      </trkpt>
      <trkpt lat="57.7155473933" lon="11.9653295527">
        <ele>20.2</ele>
        <time>2011-05-21T15:08:31Z</time>
      </trkpt>
      <trkpt lat="57.7154123609" lon="11.9655488232">
        <ele>20.2</ele>
        <time>2011-05-21T15:08:38Z</time>
      </trkpt>
      <trkpt lat="57.7152600617" lon="11.9657748831">
        <ele>20.6</ele>
        <time>2011-05-21T15:08:45Z</time>
      </trkpt>
      <trkpt lat="57.7151249455" lon="11.9659883701">
        <ele>21.6</ele>
        <time>2011-05-21T15:08:52Z</time>
      </trkpt>
      <trkpt lat="57.7150295595" lon="11.9661493864">
        <ele>22.6</ele>
        <time>2011-05-21T15:08:57Z</time>
      </trkpt>
      <trkpt lat="57.7149082734" lon="11.9663357998">
        <ele>23.4</ele>
        <time>2011-05-21T15:09:03Z</time>
      </trkpt>
      <trkpt lat="57.7147849757" lon="11.9665233867">
        <ele>24.4</ele>
        <time>2011-05-21T15:09:09Z</time>
      </trkpt>
      <trkpt lat="57.7146438245" lon="11.9667182659">
        <ele>25.6</ele>
        <time>2011-05-21T15:09:16Z</time>
      </trkpt>
      <trkpt lat="57.7146206904" lon="11.9667537214">
        <ele>25.6</ele>
        <time>2011-05-21T15:09:17Z</time>
      </trkpt>
      <trkpt lat="57.7145035953" lon="11.9669221137">
        <ele>26.4</ele>
        <time>2011-05-21T15:09:23Z</time>
      </trkpt>
      <trkpt lat="57.714399995" lon="11.9670739938">
        <ele>27.4</ele>
        <time>2011-05-21T15:09:28Z</time>
      </trkpt>
      <trkpt lat="57.714325899" lon="11.9671934358">
        <ele>27.8</ele>
        <time>2011-05-21T15:09:32Z</time>
      </trkpt>
      <trkpt lat="57.7142361288" lon="11.9673136323">
        <ele>28.2</ele>
        <time>2011-05-21T15:09:36Z</time>
      </trkpt>
      <trkpt lat="57.7141225541" lon="11.9674524365">
        <ele>28.4</ele>
        <time>2011-05-21T15:09:41Z</time>
      </trkpt>
      <trkpt lat="57.7140039502" lon="11.9676117765">
        <ele>29</ele>
        <time>2011-05-21T15:09:46Z</time>
      </trkpt>
      <trkpt lat="57.7138996794" lon="11.967749994">
        <ele>29.6</ele>
        <time>2011-05-21T15:09:50Z</time>
      </trkpt>
      <trkpt lat="57.7137626353" lon="11.9679743775">
        <ele>30.2</ele>
        <time>2011-05-21T15:09:56Z</time>
      </trkpt>
      <trkpt lat="57.7135976795" lon="11.9681803207">
        <ele>30.4</ele>
        <time>2011-05-21T15:10:02Z</time>
      </trkpt>
      <trkpt lat="57.7134509963" lon="11.9683710928">
        <ele>30.6</ele>
        <time>2011-05-21T15:10:08Z</time>
      </trkpt>
      <trkpt lat="57.7132878845" lon="11.968599751">
        <ele>30.6</ele>
        <time>2011-05-21T15:10:15Z</time>
      </trkpt>
      <trkpt lat="57.7131199112" lon="11.9688241345">
        <ele>30.6</ele>
        <time>2011-05-21T15:10:22Z</time>
      </trkpt>
      <trkpt lat="57.7129895727" lon="11.9690096259">
        <ele>30.6</ele>
        <time>2011-05-21T15:10:28Z</time>
      </trkpt>
      <trkpt lat="57.7128293107" lon="11.9691698878">
        <ele>30.8</ele>
        <time>2011-05-21T15:10:34Z</time>
      </trkpt>
      <trkpt lat="57.7126656122" lon="11.9693081054">
        <ele>30</ele>
        <time>2011-05-21T15:10:40Z</time>
      </trkpt>
      <trkpt lat="57.7125343517" lon="11.9693964506">
        <ele>29.4</ele>
        <time>2011-05-21T15:10:45Z</time>
      </trkpt>
      <trkpt lat="57.7123984811" lon="11.9694853826">
        <ele>28.4</ele>
        <time>2011-05-21T15:10:50Z</time>
      </trkpt>
      <trkpt lat="57.7122501215" lon="11.9695654297">
        <ele>27.8</ele>
        <time>2011-05-21T15:10:55Z</time>
      </trkpt>
      <trkpt lat="57.7120849142" lon="11.9695962751">
        <ele>26.6</ele>
        <time>2011-05-21T15:11:00Z</time>
      </trkpt>
      <trkpt lat="57.7119645501" lon="11.9696236839">
        <ele>25.8</ele>
        <time>2011-05-21T15:11:04Z</time>
      </trkpt>
      <trkpt lat="57.7118194594" lon="11.9696409506">
        <ele>25.4</ele>
        <time>2011-05-21T15:11:09Z</time>
      </trkpt>
      <trkpt lat="57.7116332136" lon="11.969632904">
        <ele>24.2</ele>
        <time>2011-05-21T15:11:15Z</time>
      </trkpt>
      <trkpt lat="57.7114302878" lon="11.9695875579">
        <ele>23.2</ele>
        <time>2011-05-21T15:11:22Z</time>
      </trkpt>
      <trkpt lat="57.7112506637" lon="11.969541206">
        <ele>22.8</ele>
        <time>2011-05-21T15:11:28Z</time>
      </trkpt>
      <trkpt lat="57.7110514259" lon="11.969494435">
        <ele>21.6</ele>
        <time>2011-05-21T15:11:35Z</time>
      </trkpt>
      <trkpt lat="57.7109210874" lon="11.96944121">
        <ele>21</ele>
        <time>2011-05-21T15:11:40Z</time>
      </trkpt>
      <trkpt lat="57.7108344185" lon="11.9694055869">
        <ele>20.8</ele>
        <time>2011-05-21T15:11:43Z</time>
      </trkpt>
      <trkpt lat="57.7107206762" lon="11.9692519466">
        <ele>20.6</ele>
        <time>2011-05-21T15:11:48Z</time>
      </trkpt>
      <trkpt lat="57.7106464963" lon="11.969023959">
        <ele>19.8</ele>
        <time>2011-05-21T15:11:53Z</time>
      </trkpt>
      <trkpt lat="57.7105888289" lon="11.9687841528">
        <ele>19.2</ele>
        <time>2011-05-21T15:11:58Z</time>
      </trkpt>
      <trkpt lat="57.7105352685" lon="11.9685180275">
        <ele>18.8</ele>
        <time>2011-05-21T15:12:03Z</time>
      </trkpt>
      <trkpt lat="57.7104941134" lon="11.9682548358">
        <ele>18.6</ele>
        <time>2011-05-21T15:12:08Z</time>
      </trkpt>
      <trkpt lat="57.7104644415" lon="11.9679519978">
        <ele>18.2</ele>
        <time>2011-05-21T15:12:14Z</time>
      </trkpt>
      <trkpt lat="57.7104541317" lon="11.9676632413">
        <ele>17.4</ele>
        <time>2011-05-21T15:12:20Z</time>
      </trkpt>
      <trkpt lat="57.7105328378" lon="11.967538351">
        <ele>17</ele>
        <time>2011-05-21T15:12:24Z</time>
      </trkpt>
      <trkpt lat="57.7106669482" lon="11.9675745608">
        <ele>16.8</ele>
        <time>2011-05-21T15:12:29Z</time>
      </trkpt>
      <trkpt lat="57.7107621666" lon="11.9677599684">
        <ele>16.6</ele>
        <time>2011-05-21T15:12:34Z</time>
      </trkpt>
      <trkpt lat="57.7108681976" lon="11.9680439472">
        <ele>16.4</ele>
        <time>2011-05-21T15:12:41Z</time>
      </trkpt>
      <trkpt lat="57.7109438862" lon="11.9682310312">
        <ele>16.4</ele>
        <time>2011-05-21T15:12:47Z</time>
      </trkpt>
      <trkpt lat="57.710955537" lon="11.9682634692">
        <ele>16.4</ele>
        <time>2011-05-21T15:12:49Z</time>
      </trkpt>
      <trkpt lat="57.7109560399" lon="11.9682852621">
        <ele>16.4</ele>
        <time>2011-05-21T15:12:51Z</time>
      </trkpt>
      <trkpt lat="57.7109753183" lon="11.9683269202">
        <ele>16.4</ele>
        <time>2011-05-21T15:12:59Z</time>
      </trkpt>
      <trkpt lat="57.7109473227" lon="11.9683363917">
        <ele>16.4</ele>
        <time>2011-05-21T15:13:10Z</time>
      </trkpt>
      <trkpt lat="57.7109046589" lon="11.968376541">
        <ele>14.6</ele>
        <time>2011-05-21T15:13:33Z</time>
      </trkpt>
      <trkpt lat="57.7109153039" lon="11.9685948057">
        <ele>14.4</ele>
        <time>2011-05-21T15:13:41Z</time>
      </trkpt>
      <trkpt lat="57.7109239372" lon="11.9686730088">
        <ele>14.4</ele>
        <time>2011-05-21T15:13:42Z</time>
      </trkpt>
      <trkpt lat="57.7109139628" lon="11.9688258109">
        <ele>14.4</ele>
        <time>2011-05-21T15:13:45Z</time>
      </trkpt>
      <trkpt lat="57.7108998812" lon="11.9688662116">
        <ele>14.4</ele>
        <time>2011-05-21T15:13:46Z</time>
      </trkpt>
      <trkpt lat="57.710759652" lon="11.9690594144">
        <ele>14.4</ele>
        <time>2011-05-21T15:13:52Z</time>
      </trkpt>
      <trkpt lat="57.7106510226" lon="11.969115657">
        <ele>14.8</ele>
        <time>2011-05-21T15:13:57Z</time>
      </trkpt>
      <trkpt lat="57.7105228633" lon="11.9691396292">
        <ele>15.4</ele>
        <time>2011-05-21T15:14:01Z</time>
      </trkpt>
      <trkpt lat="57.7104935267" lon="11.969135103">
        <ele>15.4</ele>
        <time>2011-05-21T15:14:02Z</time>
      </trkpt>
      <trkpt lat="57.710374839" lon="11.9690090392">
        <ele>16.4</ele>
        <time>2011-05-21T15:14:06Z</time>
      </trkpt>
      <trkpt lat="57.710344245" lon="11.9689693928">
        <ele>16.6</ele>
        <time>2011-05-21T15:14:07Z</time>
      </trkpt>
      <trkpt lat="57.7101922812" lon="11.9686698237">
        <ele>18.4</ele>
        <time>2011-05-21T15:14:13Z</time>
      </trkpt>
      <trkpt lat="57.7101384694" lon="11.9684161874">
        <ele>19.4</ele>
        <time>2011-05-21T15:14:18Z</time>
      </trkpt>
      <trkpt lat="57.7100899382" lon="11.9680942386">
        <ele>20.6</ele>
        <time>2011-05-21T15:14:24Z</time>
      </trkpt>
      <trkpt lat="57.7100779521" lon="11.968048222">
        <ele>20.8</ele>
        <time>2011-05-21T15:14:25Z</time>
      </trkpt>
      <trkpt lat="57.7100472743" lon="11.9677918197">
        <ele>21.6</ele>
        <time>2011-05-21T15:14:30Z</time>
      </trkpt>
      <trkpt lat="57.710030762" lon="11.9677440428">
        <ele>21.6</ele>
        <time>2011-05-21T15:14:31Z</time>
      </trkpt>
      <trkpt lat="57.7099942169" lon="11.9675176477">
        <ele>22</ele>
        <time>2011-05-21T15:14:35Z</time>
      </trkpt>
      <trkpt lat="57.7099400698" lon="11.9673288873">
        <ele>22.2</ele>
        <time>2011-05-21T15:14:38Z</time>
      </trkpt>
      <trkpt lat="57.7099392316" lon="11.9672715551">
        <ele>22.2</ele>
        <time>2011-05-21T15:14:39Z</time>
      </trkpt>
      <trkpt lat="57.7099136668" lon="11.9670392089">
        <ele>22.4</ele>
        <time>2011-05-21T15:14:43Z</time>
      </trkpt>
      <trkpt lat="57.7099096435" lon="11.9669765961">
        <ele>22.4</ele>
        <time>2011-05-21T15:14:44Z</time>
      </trkpt>
      <trkpt lat="57.7098777085" lon="11.9667271507">
        <ele>22.4</ele>
        <time>2011-05-21T15:14:49Z</time>
      </trkpt>
      <trkpt lat="57.7098618667" lon="11.966644589">
        <ele>21.8</ele>
        <time>2011-05-21T15:14:53Z</time>
      </trkpt>
      <trkpt lat="57.7098016008" lon="11.9666937069">
        <ele>21.4</ele>
        <time>2011-05-21T15:14:58Z</time>
      </trkpt>
      <trkpt lat="57.7096907083" lon="11.966748776">
        <ele>21</ele>
        <time>2011-05-21T15:15:02Z</time>
      </trkpt>
      <trkpt lat="57.709676962" lon="11.9667700661">
        <ele>21</ele>
        <time>2011-05-21T15:15:03Z</time>
      </trkpt>
      <trkpt lat="57.7096651435" lon="11.9667935354">
        <ele>21</ele>
        <time>2011-05-21T15:15:04Z</time>
      </trkpt>
      <trkpt lat="57.7094868605" lon="11.9668691401">
        <ele>21.8</ele>
        <time>2011-05-21T15:15:10Z</time>
      </trkpt>
      <trkpt lat="57.7092698531" lon="11.9669028354">
        <ele>23</ele>
        <time>2011-05-21T15:15:15Z</time>
      </trkpt>
      <trkpt lat="57.7091602178" lon="11.9669884146">
        <ele>23.6</ele>
        <time>2011-05-21T15:15:18Z</time>
      </trkpt>
      <trkpt lat="57.7089992015" lon="11.9670446571">
        <ele>25.2</ele>
        <time>2011-05-21T15:15:23Z</time>
      </trkpt>
      <trkpt lat="57.70887582" lon="11.9671105388">
        <ele>26.4</ele>
        <time>2011-05-21T15:15:27Z</time>
      </trkpt>
      <trkpt lat="57.7088376823" lon="11.9671345111">
        <ele>26.8</ele>
        <time>2011-05-21T15:15:28Z</time>
      </trkpt>
      <trkpt lat="57.708644731" lon="11.9672217666">
        <ele>28</ele>
        <time>2011-05-21T15:15:33Z</time>
      </trkpt>
      <trkpt lat="57.7085560505" lon="11.9672500975">
        <ele>28.2</ele>
        <time>2011-05-21T15:15:35Z</time>
      </trkpt>
      <trkpt lat="57.7082695571" lon="11.9673019814">
        <ele>30</ele>
        <time>2011-05-21T15:15:41Z</time>
      </trkpt>
      <trkpt lat="57.70809228" lon="11.9673773347">
        <ele>30.6</ele>
        <time>2011-05-21T15:15:45Z</time>
      </trkpt>
      <trkpt lat="57.7079440042" lon="11.9674066714">
        <ele>31</ele>
        <time>2011-05-21T15:15:48Z</time>
      </trkpt>
      <trkpt lat="57.7077792998" lon="11.9674523527">
        <ele>31.2</ele>
        <time>2011-05-21T15:15:52Z</time>
      </trkpt>
      <trkpt lat="57.7076683235" lon="11.967499459">
        <ele>31.4</ele>
        <time>2011-05-21T15:15:55Z</time>
      </trkpt>
      <trkpt lat="57.70763379" lon="11.9675131215">
        <ele>31.4</ele>
        <time>2011-05-21T15:15:56Z</time>
      </trkpt>
      <trkpt lat="57.7074748692" lon="11.9676417837">
        <ele>31.6</ele>
        <time>2011-05-21T15:16:01Z</time>
      </trkpt>
      <trkpt lat="57.7073613783" lon="11.967719903">
        <ele>31.6</ele>
        <time>2011-05-21T15:16:05Z</time>
      </trkpt>
      <trkpt lat="57.7072102526" lon="11.9678406861">
        <ele>31.8</ele>
        <time>2011-05-21T15:16:09Z</time>
      </trkpt>
      <trkpt lat="57.7070755555" lon="11.9679773949">
        <ele>31.6</ele>
        <time>2011-05-21T15:16:13Z</time>
      </trkpt>
      <trkpt lat="57.7069251004" lon="11.9680650696">
        <ele>30.8</ele>
        <time>2011-05-21T15:16:17Z</time>
      </trkpt>
      <trkpt lat="57.7067476556" lon="11.9681601204">
        <ele>30.2</ele>
        <time>2011-05-21T15:16:22Z</time>
      </trkpt>
      <trkpt lat="57.7066049956" lon="11.9682478788">
        <ele>29.2</ele>
        <time>2011-05-21T15:16:27Z</time>
      </trkpt>
      <trkpt lat="57.7064536185" lon="11.9683158561">
        <ele>28.6</ele>
        <time>2011-05-21T15:16:32Z</time>
      </trkpt>
      <trkpt lat="57.7062842203" lon="11.968383498">
        <ele>28</ele>
        <time>2011-05-21T15:16:37Z</time>
      </trkpt>
      <trkpt lat="57.7061405545" lon="11.9684545765">
        <ele>27.8</ele>
        <time>2011-05-21T15:16:41Z</time>
      </trkpt>
      <trkpt lat="57.7060102998" lon="11.9685174408">
        <ele>27.8</ele>
        <time>2011-05-21T15:16:45Z</time>
      </trkpt>
      <trkpt lat="57.7058378841" lon="11.9686015112">
        <ele>28.2</ele>
        <time>2011-05-21T15:16:50Z</time>
      </trkpt>
      <trkpt lat="57.7057429172" lon="11.9686540657">
        <ele>28.4</ele>
        <time>2011-05-21T15:16:53Z</time>
      </trkpt>
      <trkpt lat="57.7055940547" lon="11.9687359569">
        <ele>29</ele>
        <time>2011-05-21T15:16:58Z</time>
      </trkpt>
      <trkpt lat="57.7054736068" lon="11.9688033474">
        <ele>30</ele>
        <time>2011-05-21T15:17:02Z</time>
      </trkpt>
      <trkpt lat="57.7053187093" lon="11.9689043493">
        <ele>30.8</ele>
        <time>2011-05-21T15:17:07Z</time>
      </trkpt>
      <trkpt lat="57.7051540049" lon="11.9689600051">
        <ele>31.8</ele>
        <time>2011-05-21T15:17:11Z</time>
      </trkpt>
      <trkpt lat="57.7050185534" lon="11.9690413933">
        <ele>32.4</ele>
        <time>2011-05-21T15:17:15Z</time>
      </trkpt>
      <trkpt lat="57.7048715349" lon="11.9691347677">
        <ele>33</ele>
        <time>2011-05-21T15:17:20Z</time>
      </trkpt>
      <trkpt lat="57.7046878875" lon="11.9692407987">
        <ele>33.2</ele>
        <time>2011-05-21T15:17:25Z</time>
      </trkpt>
      <trkpt lat="57.7045447246" lon="11.969362923">
        <ele>33.4</ele>
        <time>2011-05-21T15:17:29Z</time>
      </trkpt>
      <trkpt lat="57.7044244443" lon="11.9694846282">
        <ele>33.4</ele>
        <time>2011-05-21T15:17:33Z</time>
      </trkpt>
      <trkpt lat="57.7042967042" lon="11.9696625759">
        <ele>33.6</ele>
        <time>2011-05-21T15:17:38Z</time>
      </trkpt>
      <trkpt lat="57.704151362" lon="11.9698464748">
        <ele>33.6</ele>
        <time>2011-05-21T15:17:43Z</time>
      </trkpt>
      <trkpt lat="57.704040721" lon="11.9700187229">
        <ele>33.4</ele>
        <time>2011-05-21T15:17:47Z</time>
      </trkpt>
      <trkpt lat="57.7040162458" lon="11.9700479757">
        <ele>33.2</ele>
        <time>2011-05-21T15:17:48Z</time>
      </trkpt>
      <trkpt lat="57.7038691435" lon="11.9701827566">
        <ele>32.6</ele>
        <time>2011-05-21T15:17:52Z</time>
      </trkpt>
      <trkpt lat="57.7037746795" lon="11.9702425196">
        <ele>32.2</ele>
        <time>2011-05-21T15:17:54Z</time>
      </trkpt>
      <trkpt lat="57.7036186085" lon="11.9704249936">
        <ele>31.2</ele>
        <time>2011-05-21T15:17:58Z</time>
      </trkpt>
      <trkpt lat="57.7034297643" lon="11.9706680687">
        <ele>30</ele>
        <time>2011-05-21T15:18:03Z</time>
      </trkpt>
      <trkpt lat="57.7032732742" lon="11.9708810527">
        <ele>29</ele>
        <time>2011-05-21T15:18:07Z</time>
      </trkpt>
      <trkpt lat="57.7031197178" lon="11.9710989821">
        <ele>28.2</ele>
        <time>2011-05-21T15:18:11Z</time>
      </trkpt>
      <trkpt lat="57.7029719449" lon="11.9713066856">
        <ele>27.2</ele>
        <time>2011-05-21T15:18:15Z</time>
      </trkpt>
      <trkpt lat="57.7028147004" lon="11.9715149758">
        <ele>26.4</ele>
        <time>2011-05-21T15:18:19Z</time>
      </trkpt>
      <trkpt lat="57.7026615631" lon="11.971706167">
        <ele>25.6</ele>
        <time>2011-05-21T15:18:23Z</time>
      </trkpt>
      <trkpt lat="57.7025072524" lon="11.9719155468">
        <ele>24.6</ele>
        <time>2011-05-21T15:18:27Z</time>
      </trkpt>
      <trkpt lat="57.7023609882" lon="11.9721278604">
        <ele>24</ele>
        <time>2011-05-21T15:18:31Z</time>
      </trkpt>
      <trkpt lat="57.7022510177" lon="11.9722856077">
        <ele>23.8</ele>
        <time>2011-05-21T15:18:34Z</time>
      </trkpt>
      <trkpt lat="57.7021363533" lon="11.9724583587">
        <ele>23</ele>
        <time>2011-05-21T15:18:37Z</time>
      </trkpt>
      <trkpt lat="57.7019454974" lon="11.9727195387">
        <ele>22</ele>
        <time>2011-05-21T15:18:42Z</time>
      </trkpt>
      <trkpt lat="57.7019019954" lon="11.9727699139">
        <ele>22</ele>
        <time>2011-05-21T15:18:43Z</time>
      </trkpt>
      <trkpt lat="57.7017555636" lon="11.9729937944">
        <ele>21.6</ele>
        <time>2011-05-21T15:18:47Z</time>
      </trkpt>
      <trkpt lat="57.7017184317" lon="11.9730496179">
        <ele>21.4</ele>
        <time>2011-05-21T15:18:48Z</time>
      </trkpt>
      <trkpt lat="57.7015709103" lon="11.9732719059">
        <ele>21.2</ele>
        <time>2011-05-21T15:18:52Z</time>
      </trkpt>
      <trkpt lat="57.70140805" lon="11.973507102">
        <ele>21</ele>
        <time>2011-05-21T15:18:56Z</time>
      </trkpt>
      <trkpt lat="57.7013670625" lon="11.9735606623">
        <ele>21</ele>
        <time>2011-05-21T15:18:57Z</time>
      </trkpt>
      <trkpt lat="57.701211243" lon="11.9737935115">
        <ele>21</ele>
        <time>2011-05-21T15:19:01Z</time>
      </trkpt>
      <trkpt lat="57.7011736082" lon="11.9738524363">
        <ele>21</ele>
        <time>2011-05-21T15:19:02Z</time>
      </trkpt>
      <trkpt lat="57.7010316189" lon="11.974101714">
        <ele>21</ele>
        <time>2011-05-21T15:19:06Z</time>
      </trkpt>
      <trkpt lat="57.7010017793" lon="11.9741621475">
        <ele>20.8</ele>
        <time>2011-05-21T15:19:07Z</time>
      </trkpt>
      <trkpt lat="57.7009705986" lon="11.9742151211">
        <ele>20.8</ele>
        <time>2011-05-21T15:19:08Z</time>
      </trkpt>
      <trkpt lat="57.7008731171" lon="11.9744063122">
        <ele>20.8</ele>
        <time>2011-05-21T15:19:12Z</time>
      </trkpt>
      <trkpt lat="57.7007475563" lon="11.9746258342">
        <ele>21.8</ele>
        <time>2011-05-21T15:19:18Z</time>
      </trkpt>
      <trkpt lat="57.7006328081" lon="11.974800513">
        <ele>22.4</ele>
        <time>2011-05-21T15:19:23Z</time>
      </trkpt>
      <trkpt lat="57.7005145394" lon="11.9749969009">
        <ele>22.8</ele>
        <time>2011-05-21T15:19:28Z</time>
      </trkpt>
      <trkpt lat="57.7003965223" lon="11.9751722503">
        <ele>23.8</ele>
        <time>2011-05-21T15:19:33Z</time>
      </trkpt>
      <trkpt lat="57.7002830314" lon="11.9753319255">
        <ele>24.4</ele>
        <time>2011-05-21T15:19:38Z</time>
      </trkpt>
      <trkpt lat="57.7001454006" lon="11.9754908463">
        <ele>25.2</ele>
        <time>2011-05-21T15:19:43Z</time>
      </trkpt>
      <trkpt lat="57.7000611625" lon="11.975607187">
        <ele>26</ele>
        <time>2011-05-21T15:19:47Z</time>
      </trkpt>
      <trkpt lat="57.6999216038" lon="11.9758174889">
        <ele>26.6</ele>
        <time>2011-05-21T15:19:52Z</time>
      </trkpt>
      <trkpt lat="57.699761761" lon="11.9760336581">
        <ele>27.8</ele>
        <time>2011-05-21T15:19:57Z</time>
      </trkpt>
      <trkpt lat="57.6996707336" lon="11.9761733006">
        <ele>28.2</ele>
        <time>2011-05-21T15:20:00Z</time>
      </trkpt>
      <trkpt lat="57.6995196079" lon="11.9764060659">
        <ele>29</ele>
        <time>2011-05-21T15:20:05Z</time>
      </trkpt>
      <trkpt lat="57.6994030995" lon="11.9765816667">
        <ele>29.8</ele>
        <time>2011-05-21T15:20:09Z</time>
      </trkpt>
      <trkpt lat="57.6993257346" lon="11.9767046292">
        <ele>30.2</ele>
        <time>2011-05-21T15:20:12Z</time>
      </trkpt>
      <trkpt lat="57.6992158479" lon="11.9768578503">
        <ele>31.2</ele>
        <time>2011-05-21T15:20:16Z</time>
      </trkpt>
      <trkpt lat="57.6990660633" lon="11.9770714212">
        <ele>32</ele>
        <time>2011-05-21T15:20:21Z</time>
      </trkpt>
      <trkpt lat="57.6989162788" lon="11.9773015043">
        <ele>32.6</ele>
        <time>2011-05-21T15:20:26Z</time>
      </trkpt>
      <trkpt lat="57.6988016144" lon="11.9775082858">
        <ele>32.8</ele>
        <time>2011-05-21T15:20:30Z</time>
      </trkpt>
      <trkpt lat="57.6986500696" lon="11.9777284783">
        <ele>33</ele>
        <time>2011-05-21T15:20:35Z</time>
      </trkpt>
      <trkpt lat="57.6984844433" lon="11.9779060069">
        <ele>33.2</ele>
        <time>2011-05-21T15:20:40Z</time>
      </trkpt>
      <trkpt lat="57.6983306354" lon="11.9781608167">
        <ele>33.2</ele>
        <time>2011-05-21T15:20:45Z</time>
      </trkpt>
      <trkpt lat="57.6982638317" lon="11.9782800911">
        <ele>33.2</ele>
        <time>2011-05-21T15:20:47Z</time>
      </trkpt>
      <trkpt lat="57.6981252789" lon="11.9784930752">
        <ele>33.4</ele>
        <time>2011-05-21T15:20:51Z</time>
      </trkpt>
      <trkpt lat="57.6980468243" lon="11.9785963402">
        <ele>33.4</ele>
        <time>2011-05-21T15:20:53Z</time>
      </trkpt>
      <trkpt lat="57.6978981294" lon="11.9788029541">
        <ele>33.4</ele>
        <time>2011-05-21T15:20:57Z</time>
      </trkpt>
      <trkpt lat="57.6978599917" lon="11.9788498927">
        <ele>33.4</ele>
        <time>2011-05-21T15:20:58Z</time>
      </trkpt>
      <trkpt lat="57.6976451636" lon="11.9791444327">
        <ele>33.4</ele>
        <time>2011-05-21T15:21:04Z</time>
      </trkpt>
      <trkpt lat="57.6976121389" lon="11.9791951432">
        <ele>33.4</ele>
        <time>2011-05-21T15:21:05Z</time>
      </trkpt>
      <trkpt lat="57.6975393002" lon="11.979349873">
        <ele>33.4</ele>
        <time>2011-05-21T15:21:08Z</time>
      </trkpt>
      <trkpt lat="57.6974299164" lon="11.9796463408">
        <ele>33.4</ele>
        <time>2011-05-21T15:21:15Z</time>
      </trkpt>
      <trkpt lat="57.6974181818" lon="11.979681461">
        <ele>33.4</ele>
        <time>2011-05-21T15:21:16Z</time>
      </trkpt>
      <trkpt lat="57.6973587541" lon="11.9797796969">
        <ele>33.4</ele>
        <time>2011-05-21T15:21:20Z</time>
      </trkpt>
      <trkpt lat="57.6973481929" lon="11.9797840555">
        <ele>33.4</ele>
        <time>2011-05-21T15:21:21Z</time>
      </trkpt>
      <trkpt lat="57.6973100553" lon="11.9797304113">
        <ele>34.4</ele>
        <time>2011-05-21T15:21:38Z</time>
      </trkpt>
      <trkpt lat="57.6973160064" lon="11.9796723247">
        <ele>36.2</ele>
        <time>2011-05-21T15:21:56Z</time>
      </trkpt>
      <trkpt lat="57.6973496178" lon="11.9796355282">
        <ele>38.4</ele>
        <time>2011-05-21T15:22:14Z</time>
      </trkpt>
      <trkpt lat="57.6973129889" lon="11.979616166">
        <ele>41.4</ele>
        <time>2011-05-21T15:22:27Z</time>
      </trkpt>
      <trkpt lat="57.6972534774" lon="11.9797017452">
        <ele>42.8</ele>
        <time>2011-05-21T15:22:34Z</time>
      </trkpt>
      <trkpt lat="57.6971906132" lon="11.9797578201">
        <ele>44.4</ele>
        <time>2011-05-21T15:22:41Z</time>
      </trkpt>
      <trkpt lat="57.6971772021" lon="11.9797662858">
        <ele>44.6</ele>
        <time>2011-05-21T15:22:42Z</time>
      </trkpt>
      <trkpt lat="57.6970680698" lon="11.979701829">
        <ele>45.2</ele>
        <time>2011-05-21T15:22:48Z</time>
      </trkpt>
      <trkpt lat="57.6969921298" lon="11.9795292457">
        <ele>45.4</ele>
        <time>2011-05-21T15:22:52Z</time>
      </trkpt>
      <trkpt lat="57.6969779644" lon="11.9794766074">
        <ele>45.4</ele>
        <time>2011-05-21T15:22:53Z</time>
      </trkpt>
      <trkpt lat="57.6969850052" lon="11.9793168483">
        <ele>45.6</ele>
        <time>2011-05-21T15:22:56Z</time>
      </trkpt>
      <trkpt lat="57.6970947242" lon="11.9791494618">
        <ele>45.6</ele>
        <time>2011-05-21T15:23:01Z</time>
      </trkpt>
      <trkpt lat="57.6971204567" lon="11.9791243999">
        <ele>45.6</ele>
        <time>2011-05-21T15:23:02Z</time>
      </trkpt>
      <trkpt lat="57.697289352" lon="11.9790032815">
        <ele>45.8</ele>
        <time>2011-05-21T15:23:08Z</time>
      </trkpt>
      <trkpt lat="57.6974222051" lon="11.9789770461">
        <ele>45.8</ele>
        <time>2011-05-21T15:23:12Z</time>
      </trkpt>
      <trkpt lat="57.6975154118" lon="11.9789096556">
        <ele>45.8</ele>
        <time>2011-05-21T15:23:16Z</time>
      </trkpt>
      <trkpt lat="57.6976506957" lon="11.9787384972">
        <ele>45.8</ele>
        <time>2011-05-21T15:23:22Z</time>
      </trkpt>
      <trkpt lat="57.6977656953" lon="11.9785734576">
        <ele>45.8</ele>
        <time>2011-05-21T15:23:27Z</time>
      </trkpt>
      <trkpt lat="57.6979197547" lon="11.9784407722">
        <ele>45.6</ele>
        <time>2011-05-21T15:23:33Z</time>
      </trkpt>
      <trkpt lat="57.6980277135" lon="11.978302387">
        <ele>44.8</ele>
        <time>2011-05-21T15:23:38Z</time>
      </trkpt>
      <trkpt lat="57.6980684496" lon="11.9782375949">
        <ele>44.6</ele>
        <time>2011-05-21T15:23:40Z</time>
      </trkpt>
      <trkpt lat="57.6981438867" lon="11.9781529377">
        <ele>44.4</ele>
        <time>2011-05-21T15:23:43Z</time>
      </trkpt>
      <trkpt lat="57.6982948447" lon="11.9779473297">
        <ele>44.2</ele>
        <time>2011-05-21T15:23:50Z</time>
      </trkpt>
      <trkpt lat="57.6983976906" lon="11.9778243672">
        <ele>43.2</ele>
        <time>2011-05-21T15:23:54Z</time>
      </trkpt>
      <trkpt lat="57.6985038055" lon="11.9777012371">
        <ele>42.6</ele>
        <time>2011-05-21T15:23:58Z</time>
      </trkpt>
      <trkpt lat="57.6986374968" lon="11.9773971418">
        <ele>41.2</ele>
        <time>2011-05-21T15:24:05Z</time>
      </trkpt>
      <trkpt lat="57.6987737865" lon="11.977172926">
        <ele>40.4</ele>
        <time>2011-05-21T15:24:11Z</time>
      </trkpt>
      <trkpt lat="57.6989095732" lon="11.9770209621">
        <ele>40</ele>
        <time>2011-05-21T15:24:16Z</time>
      </trkpt>
      <trkpt lat="57.6990580167" lon="11.9768511448">
        <ele>39.8</ele>
        <time>2011-05-21T15:24:22Z</time>
      </trkpt>
      <trkpt lat="57.6991705018" lon="11.9766875301">
        <ele>39.6</ele>
        <time>2011-05-21T15:24:27Z</time>
      </trkpt>
      <trkpt lat="57.6993106471" lon="11.9764934892">
        <ele>39.6</ele>
        <time>2011-05-21T15:24:33Z</time>
      </trkpt>
      <trkpt lat="57.6993238067" lon="11.9764640687">
        <ele>39.6</ele>
        <time>2011-05-21T15:24:34Z</time>
      </trkpt>
      <trkpt lat="57.6993960587" lon="11.9763527571">
        <ele>39.6</ele>
        <time>2011-05-21T15:24:38Z</time>
      </trkpt>
      <trkpt lat="57.6995182668" lon="11.9762209936">
        <ele>39.6</ele>
        <time>2011-05-21T15:24:43Z</time>
      </trkpt>
      <trkpt lat="57.6995818854" lon="11.9761326484">
        <ele>39.6</ele>
        <time>2011-05-21T15:24:46Z</time>
      </trkpt>
      <trkpt lat="57.6996560652" lon="11.9759723026">
        <ele>39.4</ele>
        <time>2011-05-21T15:24:50Z</time>
      </trkpt>
      <trkpt lat="57.6996969689" lon="11.9758956082">
        <ele>39.4</ele>
        <time>2011-05-21T15:24:52Z</time>
      </trkpt>
      <trkpt lat="57.6997885831" lon="11.9757343405">
        <ele>39.4</ele>
        <time>2011-05-21T15:24:57Z</time>
      </trkpt>
      <trkpt lat="57.6999527007" lon="11.9755634335">
        <ele>39.4</ele>
        <time>2011-05-21T15:25:03Z</time>
      </trkpt>
      <trkpt lat="57.7000689576" lon="11.9753994836">
        <ele>39.4</ele>
        <time>2011-05-21T15:25:10Z</time>
      </trkpt>
      <trkpt lat="57.7002220111" lon="11.9751694004">
        <ele>39.4</ele>
        <time>2011-05-21T15:25:18Z</time>
      </trkpt>
      <trkpt lat="57.7002921676" lon="11.9750800494">
        <ele>39.4</ele>
        <time>2011-05-21T15:25:21Z</time>
      </trkpt>
      <trkpt lat="57.7003370946" lon="11.9750642914">
        <ele>39.4</ele>
        <time>2011-05-21T15:25:26Z</time>
      </trkpt>
      <trkpt lat="57.7003831113" lon="11.9749810591">
        <ele>39.4</ele>
        <time>2011-05-21T15:25:40Z</time>
      </trkpt>
      <trkpt lat="57.7004632422" lon="11.9748594377">
        <ele>39.4</ele>
        <time>2011-05-21T15:25:44Z</time>
      </trkpt>
      <trkpt lat="57.7005427026" lon="11.9746685819">
        <ele>39.4</ele>
        <time>2011-05-21T15:25:50Z</time>
      </trkpt>
      <trkpt lat="57.7005305489" lon="11.9746353057">
        <ele>38.8</ele>
        <time>2011-05-21T15:25:58Z</time>
      </trkpt>
      <trkpt lat="57.7005195686" lon="11.9745881156">
        <ele>36.4</ele>
        <time>2011-05-21T15:26:12Z</time>
      </trkpt>
      <trkpt lat="57.7005496596" lon="11.9745600363">
        <ele>35</ele>
        <time>2011-05-21T15:26:18Z</time>
      </trkpt>
      <trkpt lat="57.7005251845" lon="11.9745131815">
        <ele>30.2</ele>
        <time>2011-05-21T15:26:41Z</time>
      </trkpt>
      <trkpt lat="57.7005085883" lon="11.9745190488">
        <ele>26.8</ele>
        <time>2011-05-21T15:27:18Z</time>
      </trkpt>
      <trkpt lat="57.7005087559" lon="11.9745202223">
        <ele>26.4</ele>
        <time>2011-05-21T15:27:27Z</time>
      </trkpt>
      <trkpt lat="57.7005044812" lon="11.9745194679">
        <ele>24.8</ele>
        <time>2011-05-21T15:27:49Z</time>
      </trkpt>
      <trkpt lat="57.7005215802" lon="11.9742888818">
        <ele>24.8</ele>
        <time>2011-05-21T15:27:54Z</time>
      </trkpt>
      <trkpt lat="57.7005232566" lon="11.9741307992">
        <ele>24.8</ele>
        <time>2011-05-21T15:27:57Z</time>
      </trkpt>
      <trkpt lat="57.700419824" lon="11.9739274543">
        <ele>24.8</ele>
        <time>2011-05-21T15:28:02Z</time>
      </trkpt>
      <trkpt lat="57.7003242703" lon="11.9737034061">
        <ele>24.8</ele>
        <time>2011-05-21T15:28:07Z</time>
      </trkpt>
      <trkpt lat="57.7002034871" lon="11.9734154878">
        <ele>24.8</ele>
        <time>2011-05-21T15:28:13Z</time>
      </trkpt>
      <trkpt lat="57.7001121244" lon="11.9732099636">
        <ele>24.8</ele>
        <time>2011-05-21T15:28:17Z</time>
      </trkpt>
      <trkpt lat="57.6999702189" lon="11.9729545672">
        <ele>24.8</ele>
        <time>2011-05-21T15:28:22Z</time>
      </trkpt>
      <trkpt lat="57.6998685464" lon="11.9726791379">
        <ele>25.6</ele>
        <time>2011-05-21T15:28:27Z</time>
      </trkpt>
      <trkpt lat="57.6997713164" lon="11.9724490548">
        <ele>26.2</ele>
        <time>2011-05-21T15:28:32Z</time>
      </trkpt>
      <trkpt lat="57.6996720747" lon="11.9722301195">
        <ele>26.4</ele>
        <time>2011-05-21T15:28:36Z</time>
      </trkpt>
      <trkpt lat="57.6995789518" lon="11.9720311332">
        <ele>27</ele>
        <time>2011-05-21T15:28:40Z</time>
      </trkpt>
      <trkpt lat="57.6994690651" lon="11.9717269541">
        <ele>27.8</ele>
        <time>2011-05-21T15:28:45Z</time>
      </trkpt>
      <trkpt lat="57.6994531395" lon="11.9716863857">
        <ele>27.8</ele>
        <time>2011-05-21T15:28:46Z</time>
      </trkpt>
      <trkpt lat="57.6993722541" lon="11.9714687077">
        <ele>28.6</ele>
        <time>2011-05-21T15:28:50Z</time>
      </trkpt>
      <trkpt lat="57.6992196197" lon="11.9712020795">
        <ele>29.6</ele>
        <time>2011-05-21T15:28:55Z</time>
      </trkpt>
      <trkpt lat="57.6991873494" lon="11.9711352758">
        <ele>29.8</ele>
        <time>2011-05-21T15:28:56Z</time>
      </trkpt>
      <trkpt lat="57.6990894488" lon="11.970950371">
        <ele>30</ele>
        <time>2011-05-21T15:28:59Z</time>
      </trkpt>
      <trkpt lat="57.6989656481" lon="11.9705860937">
        <ele>30.4</ele>
        <time>2011-05-21T15:29:05Z</time>
      </trkpt>
      <trkpt lat="57.6989428494" lon="11.9705219721">
        <ele>30.6</ele>
        <time>2011-05-21T15:29:06Z</time>
      </trkpt>
      <trkpt lat="57.698924493" lon="11.9704615386">
        <ele>30.6</ele>
        <time>2011-05-21T15:29:07Z</time>
      </trkpt>
      <trkpt lat="57.6989082321" lon="11.9703971656">
        <ele>30.6</ele>
        <time>2011-05-21T15:29:08Z</time>
      </trkpt>
      <trkpt lat="57.698752245" lon="11.970034397">
        <ele>30.8</ele>
        <time>2011-05-21T15:29:14Z</time>
      </trkpt>
      <trkpt lat="57.6987069827" lon="11.9699085009">
        <ele>30.8</ele>
        <time>2011-05-21T15:29:16Z</time>
      </trkpt>
      <trkpt lat="57.6986586191" lon="11.9697507535">
        <ele>30.8</ele>
        <time>2011-05-21T15:29:18Z</time>
      </trkpt>
      <trkpt lat="57.6985879597" lon="11.9695422118">
        <ele>30.8</ele>
        <time>2011-05-21T15:29:21Z</time>
      </trkpt>
      <trkpt lat="57.6985583716" lon="11.9693954448">
        <ele>31</ele>
        <time>2011-05-21T15:29:23Z</time>
      </trkpt>
      <trkpt lat="57.6985227486" lon="11.9692475881">
        <ele>31</ele>
        <time>2011-05-21T15:29:25Z</time>
      </trkpt>
      <trkpt lat="57.698482264" lon="11.9689652857">
        <ele>31</ele>
        <time>2011-05-21T15:29:29Z</time>
      </trkpt>
      <trkpt lat="57.6984629856" lon="11.9688391381">
        <ele>31</ele>
        <time>2011-05-21T15:29:31Z</time>
      </trkpt>
      <trkpt lat="57.6984007081" lon="11.9685986614">
        <ele>31</ele>
        <time>2011-05-21T15:29:35Z</time>
      </trkpt>
      <trkpt lat="57.6983545238" lon="11.9683648902">
        <ele>31</ele>
        <time>2011-05-21T15:29:38Z</time>
      </trkpt>
      <trkpt lat="57.6983375086" lon="11.967895839">
        <ele>31</ele>
        <time>2011-05-21T15:29:44Z</time>
      </trkpt>
      <trkpt lat="57.6983240975" lon="11.9678226651">
        <ele>31</ele>
        <time>2011-05-21T15:29:45Z</time>
      </trkpt>
      <trkpt lat="57.6982811822" lon="11.9675853735">
        <ele>31</ele>
        <time>2011-05-21T15:29:48Z</time>
      </trkpt>
      <trkpt lat="57.6982127859" lon="11.9672316573">
        <ele>31</ele>
        <time>2011-05-21T15:29:53Z</time>
      </trkpt>
      <trkpt lat="57.6982028952" lon="11.9670973793">
        <ele>31</ele>
        <time>2011-05-21T15:29:55Z</time>
      </trkpt>
      <trkpt lat="57.6981531068" lon="11.9667698984">
        <ele>31</ele>
        <time>2011-05-21T15:30:00Z</time>
      </trkpt>
      <trkpt lat="57.6980841237" lon="11.966395898">
        <ele>31</ele>
        <time>2011-05-21T15:30:05Z</time>
      </trkpt>
      <trkpt lat="57.698011285" lon="11.9660838399">
        <ele>31</ele>
        <time>2011-05-21T15:30:09Z</time>
      </trkpt>
      <trkpt lat="57.6979928448" lon="11.9658548464">
        <ele>31</ele>
        <time>2011-05-21T15:30:12Z</time>
      </trkpt>
      <trkpt lat="57.6979704652" lon="11.9657107615">
        <ele>31</ele>
        <time>2011-05-21T15:30:14Z</time>
      </trkpt>
      <trkpt lat="57.6979187488" lon="11.9654412835">
        <ele>31</ele>
        <time>2011-05-21T15:30:19Z</time>
      </trkpt>
      <trkpt lat="57.6979063436" lon="11.9653969432">
        <ele>31</ele>
        <time>2011-05-21T15:30:20Z</time>
      </trkpt>
      <trkpt lat="57.6978544597" lon="11.965092345">
        <ele>31</ele>
        <time>2011-05-21T15:30:25Z</time>
      </trkpt>
      <trkpt lat="57.6978049226" lon="11.9648245432">
        <ele>31</ele>
        <time>2011-05-21T15:30:29Z</time>
      </trkpt>
      <trkpt lat="57.6977666174" lon="11.9645413188">
        <ele>31</ele>
        <time>2011-05-21T15:30:33Z</time>
      </trkpt>
      <trkpt lat="57.6977086146" lon="11.9643288377">
        <ele>31</ele>
        <time>2011-05-21T15:30:36Z</time>
      </trkpt>
      <trkpt lat="57.6976752546" lon="11.9641064659">
        <ele>31</ele>
        <time>2011-05-21T15:30:39Z</time>
      </trkpt>
      <trkpt lat="57.6976406374" lon="11.9639558431">
        <ele>31</ele>
        <time>2011-05-21T15:30:41Z</time>
      </trkpt>
      <trkpt lat="57.6975957104" lon="11.9636819226">
        <ele>31</ele>
        <time>2011-05-21T15:30:45Z</time>
      </trkpt>
      <trkpt lat="57.6975234584" lon="11.9634087565">
        <ele>31</ele>
        <time>2011-05-21T15:30:49Z</time>
      </trkpt>
      <trkpt lat="57.6974612647" lon="11.9629448184">
        <ele>31</ele>
        <time>2011-05-21T15:30:56Z</time>
      </trkpt>
      <trkpt lat="57.697488003" lon="11.9625812954">
        <ele>31</ele>
        <time>2011-05-21T15:31:01Z</time>
      </trkpt>
      <trkpt lat="57.6975407251" lon="11.9622169342">
        <ele>31</ele>
        <time>2011-05-21T15:31:06Z</time>
      </trkpt>
      <trkpt lat="57.6975439103" lon="11.962137809">
        <ele>31</ele>
        <time>2011-05-21T15:31:07Z</time>
      </trkpt>
      <trkpt lat="57.6975215306" lon="11.9618846756">
        <ele>31</ele>
        <time>2011-05-21T15:31:10Z</time>
      </trkpt>
      <trkpt lat="57.6975289067" lon="11.96166222">
        <ele>31</ele>
        <time>2011-05-21T15:31:13Z</time>
      </trkpt>
      <trkpt lat="57.6975424015" lon="11.9615349828">
        <ele>31</ele>
        <time>2011-05-21T15:31:15Z</time>
      </trkpt>
      <trkpt lat="57.6975506996" lon="11.9614679276">
        <ele>31</ele>
        <time>2011-05-21T15:31:16Z</time>
      </trkpt>
      <trkpt lat="57.697572744" lon="11.9611605633">
        <ele>31</ele>
        <time>2011-05-21T15:31:21Z</time>
      </trkpt>
      <trkpt lat="57.6975390488" lon="11.9610718828">
        <ele>31</ele>
        <time>2011-05-21T15:31:23Z</time>
      </trkpt>
      <trkpt lat="57.6974222051" lon="11.9608562165">
        <ele>31.2</ele>
        <time>2011-05-21T15:31:29Z</time>
      </trkpt>
      <trkpt lat="57.6972482807" lon="11.9607708888">
        <ele>32</ele>
        <time>2011-05-21T15:31:34Z</time>
      </trkpt>
      <trkpt lat="57.6971072133" lon="11.9607260456">
        <ele>33</ele>
        <time>2011-05-21T15:31:38Z</time>
      </trkpt>
      <trkpt lat="57.6969336241" lon="11.9606669532">
        <ele>34.6</ele>
        <time>2011-05-21T15:31:43Z</time>
      </trkpt>
      <trkpt lat="57.6968034532" lon="11.9606082799">
        <ele>36.2</ele>
        <time>2011-05-21T15:31:47Z</time>
      </trkpt>
      <trkpt lat="57.6966499806" lon="11.9605118881">
        <ele>38.4</ele>
        <time>2011-05-21T15:31:52Z</time>
      </trkpt>
      <trkpt lat="57.6964943288" lon="11.9603610977">
        <ele>40.8</ele>
        <time>2011-05-21T15:31:57Z</time>
      </trkpt>
      <trkpt lat="57.6963414429" lon="11.9601662185">
        <ele>43.2</ele>
        <time>2011-05-21T15:32:02Z</time>
      </trkpt>
      <trkpt lat="57.6962082545" lon="11.9599434276">
        <ele>45.8</ele>
        <time>2011-05-21T15:32:08Z</time>
      </trkpt>
      <trkpt lat="57.6960919976" lon="11.9597296053">
        <ele>47</ele>
        <time>2011-05-21T15:32:13Z</time>
      </trkpt>
      <trkpt lat="57.6959492538" lon="11.9595092452">
        <ele>47.8</ele>
        <time>2011-05-21T15:32:18Z</time>
      </trkpt>
      <trkpt lat="57.6958439771" lon="11.9592729594">
        <ele>48.2</ele>
        <time>2011-05-21T15:32:23Z</time>
      </trkpt>
      <trkpt lat="57.6957603258" lon="11.9591315568">
        <ele>48.4</ele>
        <time>2011-05-21T15:32:27Z</time>
      </trkpt>
      <trkpt lat="57.695688912" lon="11.9589847059">
        <ele>48.4</ele>
        <time>2011-05-21T15:32:31Z</time>
      </trkpt>
      <trkpt lat="57.6955643569" lon="11.958785049">
        <ele>47.8</ele>
        <time>2011-05-21T15:32:35Z</time>
      </trkpt>
      <trkpt lat="57.6954824658" lon="11.9585958695">
        <ele>47.6</ele>
        <time>2011-05-21T15:32:39Z</time>
      </trkpt>
      <trkpt lat="57.6953521272" lon="11.958367798">
        <ele>47.2</ele>
        <time>2011-05-21T15:32:44Z</time>
      </trkpt>
      <trkpt lat="57.6952263987" lon="11.9582686402">
        <ele>47</ele>
        <time>2011-05-21T15:32:49Z</time>
      </trkpt>
      <trkpt lat="57.6950621973" lon="11.95813629">
        <ele>47</ele>
        <time>2011-05-21T15:32:54Z</time>
      </trkpt>
      <trkpt lat="57.6948528175" lon="11.9580207874">
        <ele>47.8</ele>
        <time>2011-05-21T15:32:59Z</time>
      </trkpt>
      <trkpt lat="57.6946765461" lon="11.9579223839">
        <ele>49.8</ele>
        <time>2011-05-21T15:33:04Z</time>
      </trkpt>
      <trkpt lat="57.6944990175" lon="11.9578295962">
        <ele>52.4</ele>
        <time>2011-05-21T15:33:09Z</time>
      </trkpt>
      <trkpt lat="57.6943023781" lon="11.9577260798">
        <ele>55.6</ele>
        <time>2011-05-21T15:33:14Z</time>
      </trkpt>
      <trkpt lat="57.6941143721" lon="11.9575877784">
        <ele>58.2</ele>
        <time>2011-05-21T15:33:18Z</time>
      </trkpt>
      <trkpt lat="57.6940677687" lon="11.9575615431">
        <ele>58.8</ele>
        <time>2011-05-21T15:33:19Z</time>
      </trkpt>
      <trkpt lat="57.6939344965" lon="11.957477305">
        <ele>60.6</ele>
        <time>2011-05-21T15:33:22Z</time>
      </trkpt>
      <trkpt lat="57.6938651782" lon="11.9573975931">
        <ele>61.8</ele>
        <time>2011-05-21T15:33:24Z</time>
      </trkpt>
      <trkpt lat="57.6937585604" lon="11.9572799951">
        <ele>63.8</ele>
        <time>2011-05-21T15:33:29Z</time>
      </trkpt>
      <trkpt lat="57.6935871506" lon="11.9570522588">
        <ele>65</ele>
        <time>2011-05-21T15:33:35Z</time>
      </trkpt>
      <trkpt lat="57.6934043413" lon="11.9568515962">
        <ele>66.6</ele>
        <time>2011-05-21T15:33:40Z</time>
      </trkpt>
      <trkpt lat="57.6932476836" lon="11.956646994">
        <ele>68.4</ele>
        <time>2011-05-21T15:33:45Z</time>
      </trkpt>
      <trkpt lat="57.6930827278" lon="11.9564340099">
        <ele>70.4</ele>
        <time>2011-05-21T15:33:50Z</time>
      </trkpt>
      <trkpt lat="57.6929558258" lon="11.9563003186">
        <ele>72</ele>
        <time>2011-05-21T15:33:54Z</time>
      </trkpt>
      <trkpt lat="57.692794139" lon="11.9561113906">
        <ele>74</ele>
        <time>2011-05-21T15:33:59Z</time>
      </trkpt>
      <trkpt lat="57.6926648063" lon="11.9559436687">
        <ele>76.2</ele>
        <time>2011-05-21T15:34:04Z</time>
      </trkpt>
      <trkpt lat="57.6925500581" lon="11.9557936327">
        <ele>77.8</ele>
        <time>2011-05-21T15:34:08Z</time>
      </trkpt>
      <trkpt lat="57.6923797379" lon="11.955561957">
        <ele>79.6</ele>
        <time>2011-05-21T15:34:13Z</time>
      </trkpt>
      <trkpt lat="57.6922574459" lon="11.955379064">
        <ele>81</ele>
        <time>2011-05-21T15:34:17Z</time>
      </trkpt>
      <trkpt lat="57.6921455476" lon="11.9552172095">
        <ele>82.4</ele>
        <time>2011-05-21T15:34:21Z</time>
      </trkpt>
      <trkpt lat="57.6919777419" lon="11.9550327239">
        <ele>83.2</ele>
        <time>2011-05-21T15:34:26Z</time>
      </trkpt>
      <trkpt lat="57.6918044042" lon="11.9548354977">
        <ele>83.6</ele>
        <time>2011-05-21T15:34:31Z</time>
      </trkpt>
      <trkpt lat="57.691679011" lon="11.9546949333">
        <ele>81.8</ele>
        <time>2011-05-21T15:34:37Z</time>
      </trkpt>
      <trkpt lat="57.6915909173" lon="11.9545899081">
        <ele>80.2</ele>
        <time>2011-05-21T15:34:41Z</time>
      </trkpt>
      <trkpt lat="57.6914946092" lon="11.9544827036">
        <ele>78.8</ele>
        <time>2011-05-21T15:34:44Z</time>
      </trkpt>
      <trkpt lat="57.691309453" lon="11.9542889979">
        <ele>76.4</ele>
        <time>2011-05-21T15:34:49Z</time>
      </trkpt>
      <trkpt lat="57.6911299128" lon="11.9540957951">
        <ele>73.8</ele>
        <time>2011-05-21T15:34:55Z</time>
      </trkpt>
      <trkpt lat="57.6909651246" lon="11.953952716">
        <ele>72.4</ele>
        <time>2011-05-21T15:35:00Z</time>
      </trkpt>
      <trkpt lat="57.6907901943" lon="11.9538488643">
        <ele>70.8</ele>
        <time>2011-05-21T15:35:05Z</time>
      </trkpt>
      <trkpt lat="57.6906025236" lon="11.9537497064">
        <ele>69.8</ele>
        <time>2011-05-21T15:35:10Z</time>
      </trkpt>
      <trkpt lat="57.6904594446" lon="11.9536236426">
        <ele>69.2</ele>
        <time>2011-05-21T15:35:15Z</time>
      </trkpt>
      <trkpt lat="57.690291136" lon="11.9536099801">
        <ele>68.8</ele>
        <time>2011-05-21T15:35:20Z</time>
      </trkpt>
      <trkpt lat="57.6901183851" lon="11.9535670648">
        <ele>68.6</ele>
        <time>2011-05-21T15:35:25Z</time>
      </trkpt>
      <trkpt lat="57.6900589574" lon="11.9535361356">
        <ele>68.6</ele>
        <time>2011-05-21T15:35:27Z</time>
      </trkpt>
      <trkpt lat="57.6899355758" lon="11.9534572619">
        <ele>67.8</ele>
        <time>2011-05-21T15:35:31Z</time>
      </trkpt>
      <trkpt lat="57.6897227594" lon="11.9533976666">
        <ele>66.2</ele>
        <time>2011-05-21T15:35:37Z</time>
      </trkpt>
      <trkpt lat="57.6895389443" lon="11.9533554218">
        <ele>64.4</ele>
        <time>2011-05-21T15:35:42Z</time>
      </trkpt>
      <trkpt lat="57.6893809455" lon="11.9533249955">
        <ele>62.4</ele>
        <time>2011-05-21T15:35:46Z</time>
      </trkpt>
      <trkpt lat="57.6892152353" lon="11.9532540009">
        <ele>60</ele>
        <time>2011-05-21T15:35:51Z</time>
      </trkpt>
      <trkpt lat="57.6890271455" lon="11.9532322079">
        <ele>57.4</ele>
        <time>2011-05-21T15:35:56Z</time>
      </trkpt>
      <trkpt lat="57.6888350323" lon="11.9533026159">
        <ele>54.8</ele>
        <time>2011-05-21T15:36:02Z</time>
      </trkpt>
      <trkpt lat="57.6887160932" lon="11.9534323677">
        <ele>53.2</ele>
        <time>2011-05-21T15:36:06Z</time>
      </trkpt>
      <trkpt lat="57.6885744391" lon="11.9535886901">
        <ele>51.2</ele>
        <time>2011-05-21T15:36:11Z</time>
      </trkpt>
      <trkpt lat="57.6884093995" lon="11.9537037736">
        <ele>49.4</ele>
        <time>2011-05-21T15:36:16Z</time>
      </trkpt>
      <trkpt lat="57.6883327051" lon="11.953711904">
        <ele>48.6</ele>
        <time>2011-05-21T15:36:18Z</time>
      </trkpt>
      <trkpt lat="57.6878787414" lon="11.9533409212">
        <ele>44.6</ele>
        <time>2011-05-21T15:36:32Z</time>
      </trkpt>
      <trkpt lat="57.6878466387" lon="11.9533422623">
        <ele>44.4</ele>
        <time>2011-05-21T15:36:33Z</time>
      </trkpt>
      <trkpt lat="57.6876262786" lon="11.953348884">
        <ele>42.8</ele>
        <time>2011-05-21T15:36:39Z</time>
      </trkpt>
      <trkpt lat="57.6874307288" lon="11.9533320363">
        <ele>41.6</ele>
        <time>2011-05-21T15:36:44Z</time>
      </trkpt>
      <trkpt lat="57.6872194211" lon="11.95330161">
        <ele>40.2</ele>
        <time>2011-05-21T15:36:50Z</time>
      </trkpt>
      <trkpt lat="57.6870570637" lon="11.9532995984">
        <ele>39.6</ele>
        <time>2011-05-21T15:36:55Z</time>
      </trkpt>
      <trkpt lat="57.6869173374" lon="11.9533334613">
        <ele>39.2</ele>
        <time>2011-05-21T15:37:00Z</time>
      </trkpt>
      <trkpt lat="57.686780461" lon="11.9533545837">
        <ele>38.4</ele>
        <time>2011-05-21T15:37:06Z</time>
      </trkpt>
      <trkpt lat="57.6866573309" lon="11.9533765442">
        <ele>37.8</ele>
        <time>2011-05-21T15:37:10Z</time>
      </trkpt>
      <trkpt lat="57.6863639644" lon="11.9532790627">
        <ele>35.8</ele>
        <time>2011-05-21T15:37:21Z</time>
      </trkpt>
      <trkpt lat="57.6861777186" lon="11.9532019493">
        <ele>35.4</ele>
        <time>2011-05-21T15:37:25Z</time>
      </trkpt>
      <trkpt lat="57.686033969" lon="11.953196501">
        <ele>35</ele>
        <time>2011-05-21T15:37:30Z</time>
      </trkpt>
      <trkpt lat="57.6858952486" lon="11.9532058049">
        <ele>34.4</ele>
        <time>2011-05-21T15:37:33Z</time>
      </trkpt>
      <trkpt lat="57.6857740463" lon="11.9530840997">
        <ele>33.8</ele>
        <time>2011-05-21T15:37:37Z</time>
      </trkpt>
      <trkpt lat="57.6856171371" lon="11.9528928248">
        <ele>32.8</ele>
        <time>2011-05-21T15:37:42Z</time>
      </trkpt>
      <trkpt lat="57.6854628263" lon="11.9527038968">
        <ele>31.6</ele>
        <time>2011-05-21T15:37:47Z</time>
      </trkpt>
      <trkpt lat="57.6853076774" lon="11.9526064991">
        <ele>30</ele>
        <time>2011-05-21T15:37:52Z</time>
      </trkpt>
      <trkpt lat="57.6852114532" lon="11.9525262843">
        <ele>28.8</ele>
        <time>2011-05-21T15:37:57Z</time>
      </trkpt>
      <trkpt lat="57.6851078529" lon="11.9523581434">
        <ele>27.2</ele>
        <time>2011-05-21T15:38:04Z</time>
      </trkpt>
      <trkpt lat="57.6849822082" lon="11.9521776811">
        <ele>26.4</ele>
        <time>2011-05-21T15:38:11Z</time>
      </trkpt>
      <trkpt lat="57.6848807034" lon="11.9520610888">
        <ele>26</ele>
        <time>2011-05-21T15:38:16Z</time>
      </trkpt>
      <trkpt lat="57.6848599163" lon="11.9520381224">
        <ele>26</ele>
        <time>2011-05-21T15:38:17Z</time>
      </trkpt>
      <trkpt lat="57.6848554739" lon="11.9518571572">
        <ele>25.8</ele>
        <time>2011-05-21T15:38:21Z</time>
      </trkpt>
      <trkpt lat="57.6848716509" lon="11.9518109729">
        <ele>25.8</ele>
        <time>2011-05-21T15:38:22Z</time>
      </trkpt>
      <trkpt lat="57.6849251275" lon="11.9516259844">
        <ele>25.8</ele>
        <time>2011-05-21T15:38:26Z</time>
      </trkpt>
      <trkpt lat="57.6849922665" lon="11.9514010142">
        <ele>25.8</ele>
        <time>2011-05-21T15:38:31Z</time>
      </trkpt>
      <trkpt lat="57.6850542925" lon="11.9511852641">
        <ele>25.8</ele>
        <time>2011-05-21T15:38:36Z</time>
      </trkpt>
      <trkpt lat="57.6851071823" lon="11.9510245831">
        <ele>26.4</ele>
        <time>2011-05-21T15:38:40Z</time>
      </trkpt>
      <trkpt lat="57.685159653" lon="11.9507900575">
        <ele>27</ele>
        <time>2011-05-21T15:38:45Z</time>
      </trkpt>
      <trkpt lat="57.6850944418" lon="11.9505524307">
        <ele>27.2</ele>
        <time>2011-05-21T15:38:51Z</time>
      </trkpt>
      <trkpt lat="57.6849511113" lon="11.9504135426">
        <ele>27.4</ele>
        <time>2011-05-21T15:38:57Z</time>
      </trkpt>
      <trkpt lat="57.6848216948" lon="11.9502945196">
        <ele>27.6</ele>
        <time>2011-05-21T15:39:02Z</time>
      </trkpt>
      <trkpt lat="57.6846949605" lon="11.9501744908">
        <ele>27.6</ele>
        <time>2011-05-21T15:39:07Z</time>
      </trkpt>
      <trkpt lat="57.6845630294" lon="11.9500642688">
        <ele>27.6</ele>
        <time>2011-05-21T15:39:13Z</time>
      </trkpt>
      <trkpt lat="57.6845163422" lon="11.9500385364">
        <ele>27.6</ele>
        <time>2011-05-21T15:39:16Z</time>
      </trkpt>
      <trkpt lat="57.6845075412" lon="11.950024371">
        <ele>27.6</ele>
        <time>2011-05-21T15:39:24Z</time>
      </trkpt>
      <trkpt lat="57.6845133247" lon="11.9500213535">
        <ele>27.6</ele>
        <time>2011-05-21T15:39:33Z</time>
      </trkpt>
      <trkpt lat="57.6844933758" lon="11.950046583">
        <ele>28.4</ele>
        <time>2011-05-21T15:39:41Z</time>
      </trkpt>
      <trkpt lat="57.6843308507" lon="11.9500202638">
        <ele>29</ele>
        <time>2011-05-21T15:39:47Z</time>
      </trkpt>
      <trkpt lat="57.6841870173" lon="11.9499360257">
        <ele>29.2</ele>
        <time>2011-05-21T15:39:52Z</time>
      </trkpt>
      <trkpt lat="57.6840622947" lon="11.9498346886">
        <ele>29.6</ele>
        <time>2011-05-21T15:39:57Z</time>
      </trkpt>
      <trkpt lat="57.6839400027" lon="11.9497318427">
        <ele>30.6</ele>
        <time>2011-05-21T15:40:02Z</time>
      </trkpt>
      <trkpt lat="57.6838335526" lon="11.94960712">
        <ele>31.2</ele>
        <time>2011-05-21T15:40:06Z</time>
      </trkpt>
      <trkpt lat="57.6836910603" lon="11.9493751928">
        <ele>32.4</ele>
        <time>2011-05-21T15:40:12Z</time>
      </trkpt>
      <trkpt lat="57.6836454628" lon="11.949257008">
        <ele>32.8</ele>
        <time>2011-05-21T15:40:15Z</time>
      </trkpt>
      <trkpt lat="57.683598105" lon="11.9490645596">
        <ele>33.2</ele>
        <time>2011-05-21T15:40:19Z</time>
      </trkpt>
      <trkpt lat="57.6835179741" lon="11.9487378331">
        <ele>33.6</ele>
        <time>2011-05-21T15:40:24Z</time>
      </trkpt>
      <trkpt lat="57.6834767351" lon="11.9484331511">
        <ele>33.6</ele>
        <time>2011-05-21T15:40:28Z</time>
      </trkpt>
      <trkpt lat="57.6834504998" lon="11.9481894892">
        <ele>33.8</ele>
        <time>2011-05-21T15:40:31Z</time>
      </trkpt>
      <trkpt lat="57.6834006275" lon="11.948034005">
        <ele>33.8</ele>
        <time>2011-05-21T15:40:34Z</time>
      </trkpt>
      <trkpt lat="57.6832500886" lon="11.9479560533">
        <ele>33.8</ele>
        <time>2011-05-21T15:40:38Z</time>
      </trkpt>
      <trkpt lat="57.6832061674" lon="11.9479523653">
        <ele>33.8</ele>
        <time>2011-05-21T15:40:39Z</time>
      </trkpt>
      <trkpt lat="57.6830147248" lon="11.9479739906">
        <ele>33.8</ele>
        <time>2011-05-21T15:40:43Z</time>
      </trkpt>
      <trkpt lat="57.682795119" lon="11.947912216">
        <ele>34</ele>
        <time>2011-05-21T15:40:48Z</time>
      </trkpt>
      <trkpt lat="57.6827567299" lon="11.9478939434">
        <ele>34</ele>
        <time>2011-05-21T15:40:49Z</time>
      </trkpt>
      <trkpt lat="57.6825558996" lon="11.9477446618">
        <ele>34</ele>
        <time>2011-05-21T15:40:54Z</time>
      </trkpt>
      <trkpt lat="57.6824477731" lon="11.9476471803">
        <ele>34</ele>
        <time>2011-05-21T15:40:57Z</time>
      </trkpt>
      <trkpt lat="57.6823490343" lon="11.9475243855">
        <ele>34</ele>
        <time>2011-05-21T15:41:00Z</time>
      </trkpt>
      <trkpt lat="57.6822404049" lon="11.9473362956">
        <ele>34</ele>
        <time>2011-05-21T15:41:04Z</time>
      </trkpt>
      <trkpt lat="57.6820715934" lon="11.9470449408">
        <ele>33.6</ele>
        <time>2011-05-21T15:41:10Z</time>
      </trkpt>
      <trkpt lat="57.6819511455" lon="11.9467613811">
        <ele>32.8</ele>
        <time>2011-05-21T15:41:15Z</time>
      </trkpt>
      <trkpt lat="57.6818704278" lon="11.9464536816">
        <ele>32.4</ele>
        <time>2011-05-21T15:41:20Z</time>
      </trkpt>
      <trkpt lat="57.6818070607" lon="11.9460946848">
        <ele>32.2</ele>
        <time>2011-05-21T15:41:26Z</time>
      </trkpt>
      <trkpt lat="57.6817761314" lon="11.9458211834">
        <ele>31.2</ele>
        <time>2011-05-21T15:41:31Z</time>
      </trkpt>
      <trkpt lat="57.6817149436" lon="11.9456274777">
        <ele>30.8</ele>
        <time>2011-05-21T15:41:35Z</time>
      </trkpt>
      <trkpt lat="57.6815740438" lon="11.9454668805">
        <ele>30.4</ele>
        <time>2011-05-21T15:41:40Z</time>
      </trkpt>
      <trkpt lat="57.6814236726" lon="11.9453638669">
        <ele>30.2</ele>
        <time>2011-05-21T15:41:45Z</time>
      </trkpt>
      <trkpt lat="57.681355863" lon="11.9453276571">
        <ele>30.2</ele>
        <time>2011-05-21T15:41:47Z</time>
      </trkpt>
      <trkpt lat="57.6812223393" lon="11.9450813969">
        <ele>30</ele>
        <time>2011-05-21T15:41:53Z</time>
      </trkpt>
      <trkpt lat="57.6811830282" lon="11.9448961569">
        <ele>30</ele>
        <time>2011-05-21T15:41:57Z</time>
      </trkpt>
      <trkpt lat="57.6811225947" lon="11.9446157823">
        <ele>29.8</ele>
        <time>2011-05-21T15:42:03Z</time>
      </trkpt>
      <trkpt lat="57.681023353" lon="11.9444379184">
        <ele>29.8</ele>
        <time>2011-05-21T15:42:08Z</time>
      </trkpt>
      <trkpt lat="57.6809113708" lon="11.9441833601">
        <ele>29.8</ele>
        <time>2011-05-21T15:42:14Z</time>
      </trkpt>
      <trkpt lat="57.6808553797" lon="11.9439150555">
        <ele>29.8</ele>
        <time>2011-05-21T15:42:19Z</time>
      </trkpt>
      <trkpt lat="57.6808249534" lon="11.9436609163">
        <ele>29.8</ele>
        <time>2011-05-21T15:42:24Z</time>
      </trkpt>
      <trkpt lat="57.6808096984" lon="11.9434569009">
        <ele>29.8</ele>
        <time>2011-05-21T15:42:28Z</time>
      </trkpt>
      <trkpt lat="57.6807880731" lon="11.9432693978">
        <ele>29.8</ele>
        <time>2011-05-21T15:42:32Z</time>
      </trkpt>
      <trkpt lat="57.6807423079" lon="11.9429349599">
        <ele>29.8</ele>
        <time>2011-05-21T15:42:39Z</time>
      </trkpt>
      <trkpt lat="57.6806798627" lon="11.9427577666">
        <ele>29.8</ele>
        <time>2011-05-21T15:42:43Z</time>
      </trkpt>
      <trkpt lat="57.6806059344" lon="11.9425387475">
        <ele>29.8</ele>
        <time>2011-05-21T15:42:48Z</time>
      </trkpt>
      <trkpt lat="57.6805863207" lon="11.9424552638">
        <ele>29.8</ele>
        <time>2011-05-21T15:42:50Z</time>
      </trkpt>
      <trkpt lat="57.6805227859" lon="11.9422251807">
        <ele>29.8</ele>
        <time>2011-05-21T15:42:55Z</time>
      </trkpt>
      <trkpt lat="57.6804349436" lon="11.9420038985">
        <ele>29.8</ele>
        <time>2011-05-21T15:43:00Z</time>
      </trkpt>
      <trkpt lat="57.6802968099" lon="11.9417155611">
        <ele>30.6</ele>
        <time>2011-05-21T15:43:07Z</time>
      </trkpt>
      <trkpt lat="57.6801601011" lon="11.9414720669">
        <ele>31.2</ele>
        <time>2011-05-21T15:43:13Z</time>
      </trkpt>
      <trkpt lat="57.6800004259" lon="11.9412387148">
        <ele>31.6</ele>
        <time>2011-05-21T15:43:19Z</time>
      </trkpt>
      <trkpt lat="57.6798306086" lon="11.9410022614">
        <ele>31.6</ele>
        <time>2011-05-21T15:43:25Z</time>
      </trkpt>
      <trkpt lat="57.6797435207" lon="11.9407274189">
        <ele>31.8</ele>
        <time>2011-05-21T15:43:30Z</time>
      </trkpt>
      <trkpt lat="57.6796720231" lon="11.9404049672">
        <ele>31.8</ele>
        <time>2011-05-21T15:43:35Z</time>
      </trkpt>
      <trkpt lat="57.6796436923" lon="11.9403019537">
        <ele>31.8</ele>
        <time>2011-05-21T15:43:37Z</time>
      </trkpt>
      <trkpt lat="57.6794742102" lon="11.9400971839">
        <ele>31.8</ele>
        <time>2011-05-21T15:43:43Z</time>
      </trkpt>
      <trkpt lat="57.6794115136" lon="11.940008671">
        <ele>31.6</ele>
        <time>2011-05-21T15:43:45Z</time>
      </trkpt>
      <trkpt lat="57.6792109348" lon="11.9397862992">
        <ele>30.8</ele>
        <time>2011-05-21T15:43:51Z</time>
      </trkpt>
      <trkpt lat="57.6790744774" lon="11.9396560445">
        <ele>30.4</ele>
        <time>2011-05-21T15:43:56Z</time>
      </trkpt>
      <trkpt lat="57.6789298058" lon="11.9395870614">
        <ele>30.2</ele>
        <time>2011-05-21T15:44:01Z</time>
      </trkpt>
      <trkpt lat="57.6787217671" lon="11.9395672802">
        <ele>30</ele>
        <time>2011-05-21T15:44:07Z</time>
      </trkpt>
      <trkpt lat="57.6785862318" lon="11.9395628378">
        <ele>30</ele>
        <time>2011-05-21T15:44:12Z</time>
      </trkpt>
      <trkpt lat="57.6784692204" lon="11.9393923499">
        <ele>30</ele>
        <time>2011-05-21T15:44:16Z</time>
      </trkpt>
      <trkpt lat="57.6783667936" lon="11.9390978099">
        <ele>30</ele>
        <time>2011-05-21T15:44:20Z</time>
      </trkpt>
      <trkpt lat="57.6782777778" lon="11.938956072">
        <ele>29.8</ele>
        <time>2011-05-21T15:44:23Z</time>
      </trkpt>
      <trkpt lat="57.6781573299" lon="11.9388606022">
        <ele>29.8</ele>
        <time>2011-05-21T15:44:29Z</time>
      </trkpt>
      <trkpt lat="57.6781471878" lon="11.9388600154">
        <ele>29.8</ele>
        <time>2011-05-21T15:44:30Z</time>
      </trkpt>
      <trkpt lat="57.6780813061" lon="11.938851885">
        <ele>29.8</ele>
        <time>2011-05-21T15:44:37Z</time>
      </trkpt>
      <trkpt lat="57.6780694038" lon="11.938856495">
        <ele>29.8</ele>
        <time>2011-05-21T15:44:38Z</time>
      </trkpt>
      <trkpt lat="57.6780330264" lon="11.9388304273">
        <ele>29.8</ele>
        <time>2011-05-21T15:44:41Z</time>
      </trkpt>
      <trkpt lat="57.6779355449" lon="11.9388269069">
        <ele>29.8</ele>
        <time>2011-05-21T15:44:46Z</time>
      </trkpt>
      <trkpt lat="57.6777347145" lon="11.9388270746">
        <ele>29.8</ele>
        <time>2011-05-21T15:44:54Z</time>
      </trkpt>
      <trkpt lat="57.677553414" lon="11.9388388092">
        <ele>29.8</ele>
        <time>2011-05-21T15:45:01Z</time>
      </trkpt>
      <trkpt lat="57.6774832575" lon="11.9388409047">
        <ele>29.8</ele>
        <time>2011-05-21T15:45:06Z</time>
      </trkpt>
      <trkpt lat="57.6774751271" lon="11.9388373005">
        <ele>29.8</ele>
        <time>2011-05-21T15:45:07Z</time>
      </trkpt>
      <trkpt lat="57.6774556811" lon="11.9388284995">
        <ele>29.8</ele>
        <time>2011-05-21T15:45:14Z</time>
      </trkpt>
      <trkpt lat="57.6774272664" lon="11.9388244762">
        <ele>29.8</ele>
        <time>2011-05-21T15:45:19Z</time>
      </trkpt>
      <trkpt lat="57.677394577" lon="11.9388248953">
        <ele>29.2</ele>
        <time>2011-05-21T15:45:26Z</time>
      </trkpt>
      <trkpt lat="57.67734043" lon="11.9387934632">
        <ele>28.6</ele>
        <time>2011-05-21T15:45:32Z</time>
      </trkpt>
      <trkpt lat="57.6773287791" lon="11.9387841592">
        <ele>28.4</ele>
        <time>2011-05-21T15:45:33Z</time>
      </trkpt>
      <trkpt lat="57.6772780686" lon="11.9388036053">
        <ele>26.6</ele>
        <time>2011-05-21T15:45:45Z</time>
      </trkpt>
      <trkpt lat="57.6772675913" lon="11.9388215425">
        <ele>26.2</ele>
        <time>2011-05-21T15:45:51Z</time>
      </trkpt>
      <trkpt lat="57.6772376679" lon="11.9388471911">
        <ele>25.8</ele>
        <time>2011-05-21T15:45:58Z</time>
      </trkpt>
      <trkpt lat="57.6771974348" lon="11.9388876757">
        <ele>25.8</ele>
        <time>2011-05-21T15:46:04Z</time>
      </trkpt>
    </trkseg>
  </trk>
</gpx>